<?xml version="1.0" encoding="UTF-8" standalone="no" ?>
<gpx xmlns="http://www.topografix.com/GPX/1/1" xmlns:xsi="http://www.w3.org/2001/XMLSchema-instance" xsi:schemaLocation="http://www.topografix.com/GPX/1/1 http://www.topografix.com/GPX/1/1/gpx.xsd" version="1.1" creator="VisuGPX - https://www.visugpx.com">
  <metadata>
    <name>rando départ stade Rimbault</name>
    <desc><![CDATA[Petite rando de 7.5 km, très agréable en majorité sur sentier. Environ 2 heures]]></desc>
  </metadata>
  <trk>
    <name><![CDATA[20180625145957-NqymM]]></name>
    <trkseg>
      <trkpt lat="47.11531" lon="2.39515">
        <ele>147</ele>
        <time>2018-06-25T06:17:12Z</time>
      </trkpt>
      <trkpt lat="47.11523" lon="2.39504">
        <ele>147</ele>
        <time>2018-06-25T06:18:32Z</time>
      </trkpt>
      <trkpt lat="47.11512" lon="2.39498">
        <ele>147</ele>
        <time>2018-06-25T06:18:42Z</time>
      </trkpt>
      <trkpt lat="47.115" lon="2.39489">
        <ele>147</ele>
        <time>2018-06-25T06:18:52Z</time>
      </trkpt>
      <trkpt lat="47.1149" lon="2.39485">
        <ele>146</ele>
        <time>2018-06-25T06:19:02Z</time>
      </trkpt>
      <trkpt lat="47.11479" lon="2.3948">
        <ele>145</ele>
        <time>2018-06-25T06:19:12Z</time>
      </trkpt>
      <trkpt lat="47.11468" lon="2.39472">
        <ele>145</ele>
        <time>2018-06-25T06:19:22Z</time>
      </trkpt>
      <trkpt lat="47.11459" lon="2.39466">
        <ele>145</ele>
        <time>2018-06-25T06:19:32Z</time>
      </trkpt>
      <trkpt lat="47.11449" lon="2.39458">
        <ele>145</ele>
        <time>2018-06-25T06:19:42Z</time>
      </trkpt>
      <trkpt lat="47.11439" lon="2.39449">
        <ele>145</ele>
        <time>2018-06-25T06:19:52Z</time>
      </trkpt>
      <trkpt lat="47.11427" lon="2.39437">
        <ele>144</ele>
      </trkpt>
      <trkpt lat="47.11416" lon="2.39429">
        <ele>144</ele>
      </trkpt>
      <trkpt lat="47.11406" lon="2.39425">
        <ele>144</ele>
        <time>2018-06-25T06:20:22Z</time>
      </trkpt>
      <trkpt lat="47.11397" lon="2.39416">
        <ele>144</ele>
        <time>2018-06-25T06:20:32Z</time>
      </trkpt>
      <trkpt lat="47.11389" lon="2.39408">
        <ele>144</ele>
        <time>2018-06-25T06:20:42Z</time>
      </trkpt>
      <trkpt lat="47.11389" lon="2.39407">
        <ele>144</ele>
        <time>2018-06-25T06:20:52Z</time>
      </trkpt>
      <trkpt lat="47.11382" lon="2.394">
        <ele>144</ele>
        <time>2018-06-25T06:21:02Z</time>
      </trkpt>
      <trkpt lat="47.11369" lon="2.39392">
        <ele>144</ele>
        <time>2018-06-25T06:21:12Z</time>
      </trkpt>
      <trkpt lat="47.11358" lon="2.39383">
        <ele>144</ele>
        <time>2018-06-25T06:21:22Z</time>
      </trkpt>
      <trkpt lat="47.11346" lon="2.39377">
        <ele>144</ele>
        <time>2018-06-25T06:21:32Z</time>
      </trkpt>
      <trkpt lat="47.11336" lon="2.39371">
        <ele>144</ele>
        <time>2018-06-25T06:21:42Z</time>
      </trkpt>
      <trkpt lat="47.11325" lon="2.39367">
        <ele>145</ele>
        <time>2018-06-25T06:21:52Z</time>
      </trkpt>
      <trkpt lat="47.11315" lon="2.39361">
        <ele>145</ele>
        <time>2018-06-25T06:22:02Z</time>
      </trkpt>
      <trkpt lat="47.11304" lon="2.39356">
        <ele>145</ele>
      </trkpt>
      <trkpt lat="47.11292" lon="2.39351">
        <ele>145</ele>
        <time>2018-06-25T06:22:22Z</time>
      </trkpt>
      <trkpt lat="47.11278" lon="2.39351">
        <ele>145</ele>
        <time>2018-06-25T06:22:32Z</time>
      </trkpt>
      <trkpt lat="47.11269" lon="2.3935">
        <ele>145</ele>
        <time>2018-06-25T06:22:42Z</time>
      </trkpt>
      <trkpt lat="47.11257" lon="2.39352">
        <ele>145</ele>
        <time>2018-06-25T06:22:52Z</time>
      </trkpt>
      <trkpt lat="47.11247" lon="2.39349">
        <ele>145</ele>
        <time>2018-06-25T06:23:02Z</time>
      </trkpt>
      <trkpt lat="47.11237" lon="2.39349">
        <ele>145</ele>
        <time>2018-06-25T06:23:12Z</time>
      </trkpt>
      <trkpt lat="47.1122" lon="2.39343">
        <ele>144</ele>
        <time>2018-06-25T06:23:22Z</time>
      </trkpt>
      <trkpt lat="47.1121" lon="2.39345">
        <ele>144</ele>
        <time>2018-06-25T06:23:32Z</time>
      </trkpt>
      <trkpt lat="47.11208" lon="2.39344">
        <ele>144</ele>
        <time>2018-06-25T06:23:42Z</time>
      </trkpt>
      <trkpt lat="47.11196" lon="2.39341">
        <ele>144</ele>
        <time>2018-06-25T06:23:52Z</time>
      </trkpt>
      <trkpt lat="47.11185" lon="2.39337">
        <ele>143</ele>
        <time>2018-06-25T06:24:02Z</time>
      </trkpt>
      <trkpt lat="47.11177" lon="2.39338">
        <ele>143</ele>
      </trkpt>
      <trkpt lat="47.11162" lon="2.39335">
        <ele>142</ele>
        <time>2018-06-25T06:24:22Z</time>
      </trkpt>
      <trkpt lat="47.11151" lon="2.39329">
        <ele>140</ele>
        <time>2018-06-25T06:24:32Z</time>
      </trkpt>
      <trkpt lat="47.11141" lon="2.39326">
        <ele>140</ele>
        <time>2018-06-25T06:24:42Z</time>
      </trkpt>
      <trkpt lat="47.11131" lon="2.39326">
        <ele>139</ele>
        <time>2018-06-25T06:24:52Z</time>
      </trkpt>
      <trkpt lat="47.11118" lon="2.3933">
        <ele>139</ele>
        <time>2018-06-25T06:25:02Z</time>
      </trkpt>
      <trkpt lat="47.11107" lon="2.39333">
        <ele>139</ele>
        <time>2018-06-25T06:25:12Z</time>
      </trkpt>
      <trkpt lat="47.11096" lon="2.39339">
        <ele>139</ele>
        <time>2018-06-25T06:25:22Z</time>
      </trkpt>
      <trkpt lat="47.11084" lon="2.39345">
        <ele>139</ele>
        <time>2018-06-25T06:25:32Z</time>
      </trkpt>
      <trkpt lat="47.11076" lon="2.39354">
        <ele>138</ele>
        <time>2018-06-25T06:25:42Z</time>
      </trkpt>
      <trkpt lat="47.11063" lon="2.39364">
        <ele>138</ele>
        <time>2018-06-25T06:25:52Z</time>
      </trkpt>
      <trkpt lat="47.1105" lon="2.39372">
        <ele>138</ele>
        <time>2018-06-25T06:26:02Z</time>
      </trkpt>
      <trkpt lat="47.11045" lon="2.3938">
        <ele>138</ele>
        <time>2018-06-25T06:26:12Z</time>
      </trkpt>
      <trkpt lat="47.11034" lon="2.39391">
        <ele>138</ele>
        <time>2018-06-25T06:26:22Z</time>
      </trkpt>
      <trkpt lat="47.11023" lon="2.394">
        <ele>137</ele>
        <time>2018-06-25T06:26:32Z</time>
      </trkpt>
      <trkpt lat="47.11013" lon="2.39406">
        <ele>137</ele>
        <time>2018-06-25T06:26:42Z</time>
      </trkpt>
      <trkpt lat="47.11003" lon="2.39411">
        <ele>137</ele>
        <time>2018-06-25T06:26:52Z</time>
      </trkpt>
      <trkpt lat="47.1099" lon="2.39408">
        <ele>136</ele>
        <time>2018-06-25T06:27:02Z</time>
      </trkpt>
      <trkpt lat="47.10977" lon="2.39401">
        <ele>135</ele>
        <time>2018-06-25T06:27:12Z</time>
      </trkpt>
      <trkpt lat="47.10965" lon="2.39388">
        <ele>135</ele>
        <time>2018-06-25T06:27:22Z</time>
      </trkpt>
      <trkpt lat="47.10956" lon="2.39384">
        <ele>135</ele>
        <time>2018-06-25T06:27:32Z</time>
      </trkpt>
      <trkpt lat="47.10946" lon="2.3939">
        <ele>135</ele>
        <time>2018-06-25T06:27:42Z</time>
      </trkpt>
      <trkpt lat="47.10935" lon="2.39395">
        <ele>135</ele>
        <time>2018-06-25T06:27:52Z</time>
      </trkpt>
      <trkpt lat="47.10921" lon="2.39394">
        <ele>135</ele>
        <time>2018-06-25T06:28:02Z</time>
      </trkpt>
      <trkpt lat="47.1091" lon="2.39397">
        <ele>134</ele>
        <time>2018-06-25T06:28:12Z</time>
      </trkpt>
      <trkpt lat="47.10899" lon="2.39399">
        <ele>134</ele>
        <time>2018-06-25T06:28:22Z</time>
      </trkpt>
      <trkpt lat="47.10888" lon="2.39406">
        <ele>134</ele>
        <time>2018-06-25T06:28:32Z</time>
      </trkpt>
      <trkpt lat="47.10876" lon="2.39411">
        <ele>134</ele>
        <time>2018-06-25T06:28:42Z</time>
      </trkpt>
      <trkpt lat="47.10866" lon="2.39415">
        <ele>134</ele>
        <time>2018-06-25T06:28:52Z</time>
      </trkpt>
      <trkpt lat="47.10854" lon="2.39423">
        <ele>134</ele>
        <time>2018-06-25T06:29:02Z</time>
      </trkpt>
      <trkpt lat="47.10846" lon="2.39428">
        <ele>134</ele>
        <time>2018-06-25T06:29:12Z</time>
      </trkpt>
      <trkpt lat="47.10844" lon="2.39428">
        <ele>134</ele>
        <time>2018-06-25T06:29:22Z</time>
      </trkpt>
      <trkpt lat="47.10834" lon="2.3943">
        <ele>134</ele>
        <time>2018-06-25T06:29:32Z</time>
      </trkpt>
      <trkpt lat="47.10822" lon="2.39433">
        <ele>134</ele>
        <time>2018-06-25T06:29:42Z</time>
      </trkpt>
      <trkpt lat="47.1081" lon="2.39439">
        <ele>135</ele>
        <time>2018-06-25T06:29:52Z</time>
      </trkpt>
      <trkpt lat="47.10806" lon="2.39441">
        <ele>135</ele>
        <time>2018-06-25T06:30:02Z</time>
      </trkpt>
      <trkpt lat="47.10801" lon="2.39443">
        <ele>135</ele>
        <time>2018-06-25T06:30:12Z</time>
      </trkpt>
      <trkpt lat="47.10796" lon="2.39434">
        <ele>135</ele>
        <time>2018-06-25T06:30:22Z</time>
      </trkpt>
      <trkpt lat="47.10788" lon="2.39419">
        <ele>135</ele>
        <time>2018-06-25T06:30:32Z</time>
      </trkpt>
      <trkpt lat="47.1078" lon="2.3941">
        <ele>134</ele>
        <time>2018-06-25T06:30:42Z</time>
      </trkpt>
      <trkpt lat="47.10775" lon="2.39399">
        <ele>134</ele>
        <time>2018-06-25T06:30:52Z</time>
      </trkpt>
      <trkpt lat="47.10766" lon="2.39385">
        <ele>133</ele>
        <time>2018-06-25T06:31:02Z</time>
      </trkpt>
      <trkpt lat="47.10758" lon="2.39367">
        <ele>132</ele>
        <time>2018-06-25T06:31:12Z</time>
      </trkpt>
      <trkpt lat="47.10758" lon="2.39366">
        <ele>132</ele>
        <time>2018-06-25T06:31:22Z</time>
      </trkpt>
      <trkpt lat="47.10758" lon="2.39366">
        <ele>132</ele>
        <time>2018-06-25T06:31:32Z</time>
      </trkpt>
      <trkpt lat="47.10758" lon="2.39366">
        <ele>132</ele>
        <time>2018-06-25T06:31:42Z</time>
      </trkpt>
      <trkpt lat="47.10759" lon="2.39367">
        <ele>132</ele>
        <time>2018-06-25T06:31:52Z</time>
      </trkpt>
      <trkpt lat="47.10759" lon="2.39367">
        <ele>132</ele>
        <time>2018-06-25T06:32:02Z</time>
      </trkpt>
      <trkpt lat="47.10759" lon="2.39366">
        <ele>132</ele>
        <time>2018-06-25T06:32:12Z</time>
      </trkpt>
      <trkpt lat="47.10759" lon="2.39366">
        <ele>132</ele>
        <time>2018-06-25T06:32:22Z</time>
      </trkpt>
      <trkpt lat="47.10756" lon="2.39362">
        <ele>132</ele>
        <time>2018-06-25T06:32:32Z</time>
      </trkpt>
      <trkpt lat="47.10752" lon="2.39349">
        <ele>132</ele>
        <time>2018-06-25T06:32:42Z</time>
      </trkpt>
      <trkpt lat="47.10744" lon="2.39338">
        <ele>130</ele>
        <time>2018-06-25T06:32:52Z</time>
      </trkpt>
      <trkpt lat="47.10736" lon="2.39331">
        <ele>129</ele>
        <time>2018-06-25T06:33:02Z</time>
      </trkpt>
      <trkpt lat="47.10726" lon="2.39322">
        <ele>129</ele>
        <time>2018-06-25T06:33:12Z</time>
      </trkpt>
      <trkpt lat="47.10718" lon="2.39311">
        <ele>129</ele>
        <time>2018-06-25T06:33:22Z</time>
      </trkpt>
      <trkpt lat="47.10711" lon="2.39301">
        <ele>129</ele>
        <time>2018-06-25T06:33:32Z</time>
      </trkpt>
      <trkpt lat="47.10704" lon="2.39289">
        <ele>128</ele>
        <time>2018-06-25T06:33:42Z</time>
      </trkpt>
      <trkpt lat="47.10698" lon="2.39278">
        <ele>128</ele>
        <time>2018-06-25T06:33:52Z</time>
      </trkpt>
      <trkpt lat="47.10698" lon="2.39257">
        <ele>128</ele>
        <time>2018-06-25T06:34:02Z</time>
      </trkpt>
      <trkpt lat="47.107" lon="2.39236">
        <ele>128</ele>
        <time>2018-06-25T06:34:12Z</time>
      </trkpt>
      <trkpt lat="47.10702" lon="2.39215">
        <ele>128</ele>
        <time>2018-06-25T06:34:22Z</time>
      </trkpt>
      <trkpt lat="47.10702" lon="2.39208">
        <ele>128</ele>
        <time>2018-06-25T06:34:32Z</time>
      </trkpt>
      <trkpt lat="47.10702" lon="2.39208">
        <ele>128</ele>
        <time>2018-06-25T06:34:42Z</time>
      </trkpt>
      <trkpt lat="47.10702" lon="2.39208">
        <ele>128</ele>
        <time>2018-06-25T06:34:52Z</time>
      </trkpt>
      <trkpt lat="47.10708" lon="2.39204">
        <ele>128</ele>
        <time>2018-06-25T06:35:02Z</time>
      </trkpt>
      <trkpt lat="47.10714" lon="2.39198">
        <ele>128</ele>
        <time>2018-06-25T06:35:12Z</time>
      </trkpt>
      <trkpt lat="47.10724" lon="2.3919">
        <ele>128</ele>
        <time>2018-06-25T06:35:22Z</time>
      </trkpt>
      <trkpt lat="47.10733" lon="2.39188">
        <ele>128</ele>
        <time>2018-06-25T06:35:32Z</time>
      </trkpt>
      <trkpt lat="47.10741" lon="2.39182">
        <ele>127</ele>
        <time>2018-06-25T06:35:42Z</time>
      </trkpt>
      <trkpt lat="47.10755" lon="2.39178">
        <ele>127</ele>
        <time>2018-06-25T06:35:52Z</time>
      </trkpt>
      <trkpt lat="47.10765" lon="2.39173">
        <ele>127</ele>
        <time>2018-06-25T06:36:02Z</time>
      </trkpt>
      <trkpt lat="47.10774" lon="2.39168">
        <ele>128</ele>
        <time>2018-06-25T06:36:12Z</time>
      </trkpt>
      <trkpt lat="47.10787" lon="2.39162">
        <ele>127</ele>
        <time>2018-06-25T06:36:22Z</time>
      </trkpt>
      <trkpt lat="47.10802" lon="2.39154">
        <ele>127</ele>
        <time>2018-06-25T06:36:32Z</time>
      </trkpt>
      <trkpt lat="47.10811" lon="2.39151">
        <ele>128</ele>
        <time>2018-06-25T06:36:42Z</time>
      </trkpt>
      <trkpt lat="47.10821" lon="2.39148">
        <ele>128</ele>
        <time>2018-06-25T06:36:52Z</time>
      </trkpt>
      <trkpt lat="47.10836" lon="2.39142">
        <ele>128</ele>
        <time>2018-06-25T06:37:02Z</time>
      </trkpt>
      <trkpt lat="47.10846" lon="2.39136">
        <ele>129</ele>
        <time>2018-06-25T06:37:12Z</time>
      </trkpt>
      <trkpt lat="47.10858" lon="2.39129">
        <ele>129</ele>
        <time>2018-06-25T06:37:22Z</time>
      </trkpt>
      <trkpt lat="47.1087" lon="2.3912">
        <ele>129</ele>
        <time>2018-06-25T06:37:32Z</time>
      </trkpt>
      <trkpt lat="47.10878" lon="2.39116">
        <ele>129</ele>
        <time>2018-06-25T06:37:42Z</time>
      </trkpt>
      <trkpt lat="47.10891" lon="2.39109">
        <ele>129</ele>
        <time>2018-06-25T06:37:52Z</time>
      </trkpt>
      <trkpt lat="47.109" lon="2.39103">
        <ele>129</ele>
        <time>2018-06-25T06:38:02Z</time>
      </trkpt>
      <trkpt lat="47.10911" lon="2.39096">
        <ele>128</ele>
        <time>2018-06-25T06:38:12Z</time>
      </trkpt>
      <trkpt lat="47.10922" lon="2.39088">
        <ele>129</ele>
        <time>2018-06-25T06:38:22Z</time>
      </trkpt>
      <trkpt lat="47.10932" lon="2.39081">
        <ele>129</ele>
        <time>2018-06-25T06:38:32Z</time>
      </trkpt>
      <trkpt lat="47.10942" lon="2.39073">
        <ele>129</ele>
        <time>2018-06-25T06:38:42Z</time>
      </trkpt>
      <trkpt lat="47.1095" lon="2.39066">
        <ele>129</ele>
        <time>2018-06-25T06:38:52Z</time>
      </trkpt>
      <trkpt lat="47.1096" lon="2.39056">
        <ele>129</ele>
        <time>2018-06-25T06:39:02Z</time>
      </trkpt>
      <trkpt lat="47.10972" lon="2.39048">
        <ele>130</ele>
        <time>2018-06-25T06:39:12Z</time>
      </trkpt>
      <trkpt lat="47.10981" lon="2.39043">
        <ele>130</ele>
        <time>2018-06-25T06:39:22Z</time>
      </trkpt>
      <trkpt lat="47.10991" lon="2.39038">
        <ele>130</ele>
        <time>2018-06-25T06:39:32Z</time>
      </trkpt>
      <trkpt lat="47.11" lon="2.39033">
        <ele>131</ele>
        <time>2018-06-25T06:39:42Z</time>
      </trkpt>
      <trkpt lat="47.11012" lon="2.39027">
        <ele>131</ele>
        <time>2018-06-25T06:39:52Z</time>
      </trkpt>
      <trkpt lat="47.11021" lon="2.39021">
        <ele>131</ele>
        <time>2018-06-25T06:40:02Z</time>
      </trkpt>
      <trkpt lat="47.11032" lon="2.39018">
        <ele>131</ele>
        <time>2018-06-25T06:40:12Z</time>
      </trkpt>
      <trkpt lat="47.1105" lon="2.3902">
        <ele>131</ele>
        <time>2018-06-25T06:40:32Z</time>
      </trkpt>
      <trkpt lat="47.11065" lon="2.39023">
        <ele>131</ele>
        <time>2018-06-25T06:40:42Z</time>
      </trkpt>
      <trkpt lat="47.11073" lon="2.39026">
        <ele>131</ele>
        <time>2018-06-25T06:40:52Z</time>
      </trkpt>
      <trkpt lat="47.11084" lon="2.39029">
        <ele>132</ele>
        <time>2018-06-25T06:41:22Z</time>
      </trkpt>
      <trkpt lat="47.11097" lon="2.39033">
        <ele>132</ele>
        <time>2018-06-25T06:41:32Z</time>
      </trkpt>
      <trkpt lat="47.11107" lon="2.39036">
        <ele>132</ele>
        <time>2018-06-25T06:41:42Z</time>
      </trkpt>
      <trkpt lat="47.11118" lon="2.3904">
        <ele>132</ele>
        <time>2018-06-25T06:41:52Z</time>
      </trkpt>
      <trkpt lat="47.11142" lon="2.39045">
        <ele>132</ele>
        <time>2018-06-25T06:42:12Z</time>
      </trkpt>
      <trkpt lat="47.11155" lon="2.39048">
        <ele>132</ele>
        <time>2018-06-25T06:42:22Z</time>
      </trkpt>
      <trkpt lat="47.11166" lon="2.3905">
        <ele>132</ele>
        <time>2018-06-25T06:42:32Z</time>
      </trkpt>
      <trkpt lat="47.11177" lon="2.39052">
        <ele>132</ele>
        <time>2018-06-25T06:42:42Z</time>
      </trkpt>
      <trkpt lat="47.1119" lon="2.39053">
        <ele>132</ele>
        <time>2018-06-25T06:42:52Z</time>
      </trkpt>
      <trkpt lat="47.11203" lon="2.39053">
        <ele>132</ele>
        <time>2018-06-25T06:43:02Z</time>
      </trkpt>
      <trkpt lat="47.1121" lon="2.39052">
        <ele>132</ele>
        <time>2018-06-25T06:43:12Z</time>
      </trkpt>
      <trkpt lat="47.11222" lon="2.39049">
        <ele>132</ele>
        <time>2018-06-25T06:43:22Z</time>
      </trkpt>
      <trkpt lat="47.11265" lon="2.39033">
        <ele>131</ele>
        <time>2018-06-25T06:44:02Z</time>
      </trkpt>
      <trkpt lat="47.11276" lon="2.3903">
        <ele>131</ele>
        <time>2018-06-25T06:44:12Z</time>
      </trkpt>
      <trkpt lat="47.11288" lon="2.39031">
        <ele>131</ele>
        <time>2018-06-25T06:44:22Z</time>
      </trkpt>
      <trkpt lat="47.11298" lon="2.39032">
        <ele>131</ele>
        <time>2018-06-25T06:44:32Z</time>
      </trkpt>
      <trkpt lat="47.11307" lon="2.39032">
        <ele>131</ele>
        <time>2018-06-25T06:44:42Z</time>
      </trkpt>
      <trkpt lat="47.11317" lon="2.39032">
        <ele>131</ele>
        <time>2018-06-25T06:44:52Z</time>
      </trkpt>
      <trkpt lat="47.11328" lon="2.39033">
        <ele>131</ele>
        <time>2018-06-25T06:45:02Z</time>
      </trkpt>
      <trkpt lat="47.1134" lon="2.39034">
        <ele>131</ele>
        <time>2018-06-25T06:45:12Z</time>
      </trkpt>
      <trkpt lat="47.11351" lon="2.39032">
        <ele>131</ele>
        <time>2018-06-25T06:45:22Z</time>
      </trkpt>
      <trkpt lat="47.11373" lon="2.39035">
        <ele>131</ele>
        <time>2018-06-25T06:45:52Z</time>
      </trkpt>
      <trkpt lat="47.11382" lon="2.39035">
        <ele>131</ele>
        <time>2018-06-25T06:46:02Z</time>
      </trkpt>
      <trkpt lat="47.1139" lon="2.39033">
        <ele>131</ele>
        <time>2018-06-25T06:46:12Z</time>
      </trkpt>
      <trkpt lat="47.11403" lon="2.39029">
        <ele>131</ele>
        <time>2018-06-25T06:46:22Z</time>
      </trkpt>
      <trkpt lat="47.11412" lon="2.39027">
        <ele>131</ele>
        <time>2018-06-25T06:46:32Z</time>
      </trkpt>
      <trkpt lat="47.11422" lon="2.39022">
        <ele>133</ele>
        <time>2018-06-25T06:46:42Z</time>
      </trkpt>
      <trkpt lat="47.11433" lon="2.39017">
        <ele>133</ele>
        <time>2018-06-25T06:46:52Z</time>
      </trkpt>
      <trkpt lat="47.11444" lon="2.39011">
        <ele>133</ele>
        <time>2018-06-25T06:47:02Z</time>
      </trkpt>
      <trkpt lat="47.11474" lon="2.38996">
        <ele>133</ele>
        <time>2018-06-25T06:47:32Z</time>
      </trkpt>
      <trkpt lat="47.11483" lon="2.3899">
        <ele>134</ele>
        <time>2018-06-25T06:47:42Z</time>
      </trkpt>
      <trkpt lat="47.11493" lon="2.38985">
        <ele>134</ele>
        <time>2018-06-25T06:47:52Z</time>
      </trkpt>
      <trkpt lat="47.11503" lon="2.38979">
        <ele>134</ele>
        <time>2018-06-25T06:48:02Z</time>
      </trkpt>
      <trkpt lat="47.11512" lon="2.38972">
        <ele>134</ele>
        <time>2018-06-25T06:48:12Z</time>
      </trkpt>
      <trkpt lat="47.11522" lon="2.38968">
        <ele>134</ele>
        <time>2018-06-25T06:48:22Z</time>
      </trkpt>
      <trkpt lat="47.11532" lon="2.38964">
        <ele>134</ele>
        <time>2018-06-25T06:48:32Z</time>
      </trkpt>
      <trkpt lat="47.11543" lon="2.38958">
        <ele>134</ele>
        <time>2018-06-25T06:48:42Z</time>
      </trkpt>
      <trkpt lat="47.11552" lon="2.38954">
        <ele>134</ele>
        <time>2018-06-25T06:48:52Z</time>
      </trkpt>
      <trkpt lat="47.11564" lon="2.38949">
        <ele>134</ele>
        <time>2018-06-25T06:49:02Z</time>
      </trkpt>
      <trkpt lat="47.11574" lon="2.38946">
        <ele>134</ele>
        <time>2018-06-25T06:49:12Z</time>
      </trkpt>
      <trkpt lat="47.11584" lon="2.38942">
        <ele>134</ele>
        <time>2018-06-25T06:49:22Z</time>
      </trkpt>
      <trkpt lat="47.11593" lon="2.38938">
        <ele>134</ele>
        <time>2018-06-25T06:49:32Z</time>
      </trkpt>
      <trkpt lat="47.11605" lon="2.38935">
        <ele>134</ele>
        <time>2018-06-25T06:49:42Z</time>
      </trkpt>
      <trkpt lat="47.11617" lon="2.38932">
        <ele>134</ele>
        <time>2018-06-25T06:49:52Z</time>
      </trkpt>
      <trkpt lat="47.11627" lon="2.38931">
        <ele>134</ele>
        <time>2018-06-25T06:50:02Z</time>
      </trkpt>
      <trkpt lat="47.11638" lon="2.38928">
        <ele>134</ele>
        <time>2018-06-25T06:50:12Z</time>
      </trkpt>
      <trkpt lat="47.11641" lon="2.38926">
        <ele>134</ele>
        <time>2018-06-25T06:50:22Z</time>
      </trkpt>
      <trkpt lat="47.11648" lon="2.38924">
        <ele>134</ele>
        <time>2018-06-25T06:50:32Z</time>
      </trkpt>
      <trkpt lat="47.1166" lon="2.38923">
        <ele>133</ele>
        <time>2018-06-25T06:50:42Z</time>
      </trkpt>
      <trkpt lat="47.11672" lon="2.38921">
        <ele>133</ele>
        <time>2018-06-25T06:50:52Z</time>
      </trkpt>
      <trkpt lat="47.11681" lon="2.38916">
        <ele>133</ele>
        <time>2018-06-25T06:51:02Z</time>
      </trkpt>
      <trkpt lat="47.11691" lon="2.38913">
        <ele>133</ele>
        <time>2018-06-25T06:51:12Z</time>
      </trkpt>
      <trkpt lat="47.11703" lon="2.3891">
        <ele>132</ele>
        <time>2018-06-25T06:51:22Z</time>
      </trkpt>
      <trkpt lat="47.11714" lon="2.38908">
        <ele>133</ele>
        <time>2018-06-25T06:51:32Z</time>
      </trkpt>
      <trkpt lat="47.11724" lon="2.38906">
        <ele>133</ele>
        <time>2018-06-25T06:51:42Z</time>
      </trkpt>
      <trkpt lat="47.11735" lon="2.38904">
        <ele>133</ele>
        <time>2018-06-25T06:51:52Z</time>
      </trkpt>
      <trkpt lat="47.11746" lon="2.38902">
        <ele>133</ele>
        <time>2018-06-25T06:52:02Z</time>
      </trkpt>
      <trkpt lat="47.11757" lon="2.389">
        <ele>133</ele>
        <time>2018-06-25T06:52:12Z</time>
      </trkpt>
      <trkpt lat="47.1177" lon="2.38896">
        <ele>133</ele>
        <time>2018-06-25T06:52:22Z</time>
      </trkpt>
      <trkpt lat="47.11779" lon="2.38894">
        <ele>133</ele>
        <time>2018-06-25T06:52:32Z</time>
      </trkpt>
      <trkpt lat="47.11789" lon="2.38891">
        <ele>133</ele>
        <time>2018-06-25T06:52:42Z</time>
      </trkpt>
      <trkpt lat="47.11799" lon="2.3889">
        <ele>133</ele>
        <time>2018-06-25T06:52:52Z</time>
      </trkpt>
      <trkpt lat="47.11811" lon="2.38887">
        <ele>133</ele>
      </trkpt>
      <trkpt lat="47.11822" lon="2.38884">
        <ele>133</ele>
      </trkpt>
      <trkpt lat="47.11834" lon="2.38882">
        <ele>133</ele>
      </trkpt>
      <trkpt lat="47.11845" lon="2.38881">
        <ele>133</ele>
      </trkpt>
      <trkpt lat="47.11857" lon="2.38881">
        <ele>133</ele>
        <time>2018-06-25T06:53:42Z</time>
      </trkpt>
      <trkpt lat="47.11867" lon="2.38883">
        <ele>133</ele>
        <time>2018-06-25T06:53:52Z</time>
      </trkpt>
      <trkpt lat="47.11878" lon="2.38882">
        <ele>133</ele>
        <time>2018-06-25T06:54:02Z</time>
      </trkpt>
      <trkpt lat="47.11898" lon="2.38883">
        <ele>133</ele>
        <time>2018-06-25T06:54:22Z</time>
      </trkpt>
      <trkpt lat="47.11907" lon="2.38888">
        <ele>133</ele>
      </trkpt>
      <trkpt lat="47.11916" lon="2.38893">
        <ele>133</ele>
      </trkpt>
      <trkpt lat="47.11924" lon="2.38894">
        <ele>133</ele>
        <time>2018-06-25T06:54:52Z</time>
      </trkpt>
      <trkpt lat="47.11925" lon="2.38895">
        <ele>133</ele>
        <time>2018-06-25T06:55:02Z</time>
      </trkpt>
      <trkpt lat="47.11925" lon="2.38895">
        <ele>133</ele>
        <time>2018-06-25T06:55:12Z</time>
      </trkpt>
      <trkpt lat="47.11925" lon="2.38895">
        <ele>133</ele>
        <time>2018-06-25T06:55:22Z</time>
      </trkpt>
      <trkpt lat="47.11925" lon="2.38895">
        <ele>133</ele>
        <time>2018-06-25T06:55:32Z</time>
      </trkpt>
      <trkpt lat="47.11925" lon="2.38895">
        <ele>133</ele>
        <time>2018-06-25T06:55:42Z</time>
      </trkpt>
      <trkpt lat="47.11925" lon="2.38895">
        <ele>133</ele>
        <time>2018-06-25T06:55:52Z</time>
      </trkpt>
      <trkpt lat="47.11925" lon="2.38895">
        <ele>133</ele>
        <time>2018-06-25T06:56:02Z</time>
      </trkpt>
      <trkpt lat="47.11925" lon="2.38894">
        <ele>133</ele>
        <time>2018-06-25T06:56:12Z</time>
      </trkpt>
      <trkpt lat="47.11925" lon="2.38894">
        <ele>133</ele>
        <time>2018-06-25T06:56:22Z</time>
      </trkpt>
      <trkpt lat="47.11924" lon="2.38894">
        <ele>133</ele>
        <time>2018-06-25T06:56:32Z</time>
      </trkpt>
      <trkpt lat="47.11924" lon="2.38894">
        <ele>133</ele>
        <time>2018-06-25T06:56:42Z</time>
      </trkpt>
      <trkpt lat="47.11924" lon="2.38894">
        <ele>133</ele>
        <time>2018-06-25T06:56:52Z</time>
      </trkpt>
      <trkpt lat="47.11924" lon="2.38894">
        <ele>133</ele>
        <time>2018-06-25T06:57:02Z</time>
      </trkpt>
      <trkpt lat="47.11924" lon="2.38894">
        <ele>133</ele>
        <time>2018-06-25T06:57:12Z</time>
      </trkpt>
      <trkpt lat="47.11932" lon="2.38889">
        <ele>133</ele>
        <time>2018-06-25T06:57:22Z</time>
      </trkpt>
      <trkpt lat="47.11939" lon="2.3888">
        <ele>133</ele>
        <time>2018-06-25T06:57:32Z</time>
      </trkpt>
      <trkpt lat="47.11947" lon="2.38869">
        <ele>133</ele>
        <time>2018-06-25T06:57:42Z</time>
      </trkpt>
      <trkpt lat="47.11955" lon="2.38857">
        <ele>133</ele>
        <time>2018-06-25T06:57:52Z</time>
      </trkpt>
      <trkpt lat="47.11959" lon="2.38844">
        <ele>133</ele>
        <time>2018-06-25T06:58:02Z</time>
      </trkpt>
      <trkpt lat="47.11966" lon="2.3883">
        <ele>133</ele>
        <time>2018-06-25T06:58:12Z</time>
      </trkpt>
      <trkpt lat="47.11971" lon="2.38816">
        <ele>133</ele>
        <time>2018-06-25T06:58:22Z</time>
      </trkpt>
      <trkpt lat="47.11978" lon="2.38802">
        <ele>133</ele>
        <time>2018-06-25T06:58:32Z</time>
      </trkpt>
      <trkpt lat="47.11984" lon="2.38788">
        <ele>133</ele>
        <time>2018-06-25T06:58:42Z</time>
      </trkpt>
      <trkpt lat="47.11989" lon="2.38781">
        <ele>133</ele>
        <time>2018-06-25T06:58:52Z</time>
      </trkpt>
      <trkpt lat="47.11997" lon="2.38769">
        <ele>132</ele>
      </trkpt>
      <trkpt lat="47.12012" lon="2.38753">
        <ele>133</ele>
      </trkpt>
      <trkpt lat="47.12018" lon="2.38746">
        <ele>133</ele>
      </trkpt>
      <trkpt lat="47.12025" lon="2.38733">
        <ele>133</ele>
      </trkpt>
      <trkpt lat="47.12032" lon="2.38717">
        <ele>133</ele>
        <time>2018-06-25T06:59:42Z</time>
      </trkpt>
      <trkpt lat="47.12041" lon="2.38701">
        <ele>133</ele>
      </trkpt>
      <trkpt lat="47.12048" lon="2.38689">
        <ele>133</ele>
        <time>2018-06-25T07:00:02Z</time>
      </trkpt>
      <trkpt lat="47.12059" lon="2.38676">
        <ele>133</ele>
        <time>2018-06-25T07:00:12Z</time>
      </trkpt>
      <trkpt lat="47.12064" lon="2.3867">
        <ele>133</ele>
        <time>2018-06-25T07:00:22Z</time>
      </trkpt>
      <trkpt lat="47.1208" lon="2.38662">
        <ele>134</ele>
        <time>2018-06-25T07:00:32Z</time>
      </trkpt>
      <trkpt lat="47.12089" lon="2.38656">
        <ele>134</ele>
        <time>2018-06-25T07:00:42Z</time>
      </trkpt>
      <trkpt lat="47.12099" lon="2.38649">
        <ele>135</ele>
      </trkpt>
      <trkpt lat="47.12121" lon="2.38637">
        <ele>135</ele>
      </trkpt>
      <trkpt lat="47.12133" lon="2.38635">
        <ele>135</ele>
      </trkpt>
      <trkpt lat="47.12142" lon="2.38632">
        <ele>135</ele>
      </trkpt>
      <trkpt lat="47.12154" lon="2.38632">
        <ele>135</ele>
        <time>2018-06-25T07:01:42Z</time>
      </trkpt>
      <trkpt lat="47.12166" lon="2.3863">
        <ele>135</ele>
        <time>2018-06-25T07:01:52Z</time>
      </trkpt>
      <trkpt lat="47.12177" lon="2.38628">
        <ele>137</ele>
        <time>2018-06-25T07:02:02Z</time>
      </trkpt>
      <trkpt lat="47.12188" lon="2.38627">
        <ele>137</ele>
        <time>2018-06-25T07:02:12Z</time>
      </trkpt>
      <trkpt lat="47.12198" lon="2.38624">
        <ele>137</ele>
        <time>2018-06-25T07:02:22Z</time>
      </trkpt>
      <trkpt lat="47.12211" lon="2.38622">
        <ele>137</ele>
      </trkpt>
      <trkpt lat="47.12221" lon="2.38618">
        <ele>137</ele>
        <time>2018-06-25T07:02:42Z</time>
      </trkpt>
      <trkpt lat="47.12235" lon="2.38611">
        <ele>137</ele>
      </trkpt>
      <trkpt lat="47.12245" lon="2.38608">
        <ele>137</ele>
        <time>2018-06-25T07:03:02Z</time>
      </trkpt>
      <trkpt lat="47.12255" lon="2.38603">
        <ele>138</ele>
        <time>2018-06-25T07:03:12Z</time>
      </trkpt>
      <trkpt lat="47.12264" lon="2.38598">
        <ele>138</ele>
        <time>2018-06-25T07:03:22Z</time>
      </trkpt>
      <trkpt lat="47.12273" lon="2.38595">
        <ele>138</ele>
        <time>2018-06-25T07:03:32Z</time>
      </trkpt>
      <trkpt lat="47.12284" lon="2.38588">
        <ele>138</ele>
        <time>2018-06-25T07:03:42Z</time>
      </trkpt>
      <trkpt lat="47.12295" lon="2.38581">
        <ele>136</ele>
        <time>2018-06-25T07:03:52Z</time>
      </trkpt>
      <trkpt lat="47.12308" lon="2.38577">
        <ele>136</ele>
        <time>2018-06-25T07:04:02Z</time>
      </trkpt>
      <trkpt lat="47.12318" lon="2.38571">
        <ele>136</ele>
        <time>2018-06-25T07:04:12Z</time>
      </trkpt>
      <trkpt lat="47.1233" lon="2.38567">
        <ele>136</ele>
        <time>2018-06-25T07:04:22Z</time>
      </trkpt>
      <trkpt lat="47.12341" lon="2.38567">
        <ele>136</ele>
        <time>2018-06-25T07:04:32Z</time>
      </trkpt>
      <trkpt lat="47.12353" lon="2.38565">
        <ele>136</ele>
        <time>2018-06-25T07:04:42Z</time>
      </trkpt>
      <trkpt lat="47.12355" lon="2.38566">
        <ele>136</ele>
        <time>2018-06-25T07:04:52Z</time>
      </trkpt>
      <trkpt lat="47.12366" lon="2.38565">
        <ele>136</ele>
        <time>2018-06-25T07:05:02Z</time>
      </trkpt>
      <trkpt lat="47.12372" lon="2.38567">
        <ele>136</ele>
        <time>2018-06-25T07:05:12Z</time>
      </trkpt>
      <trkpt lat="47.12379" lon="2.38568">
        <ele>136</ele>
        <time>2018-06-25T07:05:22Z</time>
      </trkpt>
      <trkpt lat="47.1239" lon="2.38571">
        <ele>136</ele>
        <time>2018-06-25T07:05:32Z</time>
      </trkpt>
      <trkpt lat="47.12394" lon="2.38572">
        <ele>136</ele>
        <time>2018-06-25T07:05:42Z</time>
      </trkpt>
      <trkpt lat="47.12394" lon="2.38572">
        <ele>136</ele>
        <time>2018-06-25T07:05:52Z</time>
      </trkpt>
      <trkpt lat="47.12394" lon="2.38572">
        <ele>136</ele>
        <time>2018-06-25T07:06:01Z</time>
      </trkpt>
      <trkpt lat="47.124" lon="2.38574">
        <ele>136</ele>
        <time>2018-06-25T07:06:12Z</time>
      </trkpt>
      <trkpt lat="47.12401" lon="2.38574">
        <ele>136</ele>
        <time>2018-06-25T07:06:22Z</time>
      </trkpt>
      <trkpt lat="47.12401" lon="2.38574">
        <ele>136</ele>
        <time>2018-06-25T07:06:32Z</time>
      </trkpt>
      <trkpt lat="47.12402" lon="2.38574">
        <ele>136</ele>
        <time>2018-06-25T07:06:42Z</time>
      </trkpt>
      <trkpt lat="47.12407" lon="2.38579">
        <ele>137</ele>
        <time>2018-06-25T07:06:52Z</time>
      </trkpt>
      <trkpt lat="47.12413" lon="2.38579">
        <ele>137</ele>
        <time>2018-06-25T07:07:02Z</time>
      </trkpt>
      <trkpt lat="47.12413" lon="2.38579">
        <ele>137</ele>
        <time>2018-06-25T07:07:12Z</time>
      </trkpt>
      <trkpt lat="47.12413" lon="2.38579">
        <ele>137</ele>
        <time>2018-06-25T07:07:22Z</time>
      </trkpt>
      <trkpt lat="47.12415" lon="2.38582">
        <ele>137</ele>
        <time>2018-06-25T07:07:32Z</time>
      </trkpt>
      <trkpt lat="47.12415" lon="2.38582">
        <ele>137</ele>
        <time>2018-06-25T07:07:42Z</time>
      </trkpt>
      <trkpt lat="47.12415" lon="2.38582">
        <ele>137</ele>
        <time>2018-06-25T07:07:52Z</time>
      </trkpt>
      <trkpt lat="47.12415" lon="2.38582">
        <ele>137</ele>
        <time>2018-06-25T07:08:02Z</time>
      </trkpt>
      <trkpt lat="47.12416" lon="2.38582">
        <ele>137</ele>
        <time>2018-06-25T07:08:12Z</time>
      </trkpt>
      <trkpt lat="47.1242" lon="2.3859">
        <ele>137</ele>
        <time>2018-06-25T07:08:22Z</time>
      </trkpt>
      <trkpt lat="47.12425" lon="2.38597">
        <ele>137</ele>
        <time>2018-06-25T07:08:32Z</time>
      </trkpt>
      <trkpt lat="47.12432" lon="2.38607">
        <ele>137</ele>
        <time>2018-06-25T07:08:42Z</time>
      </trkpt>
      <trkpt lat="47.12441" lon="2.3862">
        <ele>137</ele>
        <time>2018-06-25T07:08:52Z</time>
      </trkpt>
      <trkpt lat="47.1245" lon="2.38629">
        <ele>137</ele>
        <time>2018-06-25T07:09:02Z</time>
      </trkpt>
      <trkpt lat="47.12457" lon="2.38639">
        <ele>137</ele>
        <time>2018-06-25T07:09:12Z</time>
      </trkpt>
      <trkpt lat="47.12465" lon="2.38648">
        <ele>137</ele>
        <time>2018-06-25T07:09:22Z</time>
      </trkpt>
      <trkpt lat="47.12473" lon="2.38658">
        <ele>137</ele>
        <time>2018-06-25T07:09:32Z</time>
      </trkpt>
      <trkpt lat="47.12479" lon="2.38665">
        <ele>136</ele>
        <time>2018-06-25T07:09:42Z</time>
      </trkpt>
      <trkpt lat="47.12482" lon="2.38666">
        <ele>136</ele>
        <time>2018-06-25T07:09:52Z</time>
      </trkpt>
      <trkpt lat="47.12492" lon="2.38662">
        <ele>136</ele>
      </trkpt>
      <trkpt lat="47.12499" lon="2.38655">
        <ele>136</ele>
      </trkpt>
      <trkpt lat="47.12513" lon="2.38633">
        <ele>135</ele>
        <time>2018-06-25T07:10:22Z</time>
      </trkpt>
      <trkpt lat="47.12536" lon="2.38615">
        <ele>135</ele>
        <time>2018-06-25T07:10:32Z</time>
      </trkpt>
      <trkpt lat="47.1254" lon="2.38611">
        <ele>135</ele>
        <time>2018-06-25T07:10:42Z</time>
      </trkpt>
      <trkpt lat="47.1254" lon="2.38611">
        <ele>135</ele>
        <time>2018-06-25T07:10:52Z</time>
      </trkpt>
      <trkpt lat="47.12546" lon="2.38603">
        <ele>135</ele>
        <time>2018-06-25T07:11:02Z</time>
      </trkpt>
      <trkpt lat="47.12559" lon="2.38595">
        <ele>135</ele>
        <time>2018-06-25T07:11:12Z</time>
      </trkpt>
      <trkpt lat="47.12568" lon="2.38586">
        <ele>136</ele>
        <time>2018-06-25T07:11:22Z</time>
      </trkpt>
      <trkpt lat="47.12575" lon="2.38577">
        <ele>136</ele>
        <time>2018-06-25T07:11:32Z</time>
      </trkpt>
      <trkpt lat="47.12585" lon="2.38567">
        <ele>137</ele>
        <time>2018-06-25T07:11:42Z</time>
      </trkpt>
      <trkpt lat="47.12596" lon="2.38557">
        <ele>137</ele>
        <time>2018-06-25T07:11:52Z</time>
      </trkpt>
      <trkpt lat="47.12604" lon="2.38547">
        <ele>138</ele>
        <time>2018-06-25T07:12:02Z</time>
      </trkpt>
      <trkpt lat="47.12611" lon="2.3854">
        <ele>138</ele>
        <time>2018-06-25T07:12:12Z</time>
      </trkpt>
      <trkpt lat="47.12623" lon="2.3853">
        <ele>138</ele>
        <time>2018-06-25T07:12:22Z</time>
      </trkpt>
      <trkpt lat="47.12633" lon="2.3852">
        <ele>138</ele>
        <time>2018-06-25T07:12:32Z</time>
      </trkpt>
      <trkpt lat="47.12643" lon="2.38511">
        <ele>139</ele>
        <time>2018-06-25T07:12:42Z</time>
      </trkpt>
      <trkpt lat="47.12652" lon="2.38504">
        <ele>140</ele>
        <time>2018-06-25T07:12:52Z</time>
      </trkpt>
      <trkpt lat="47.12664" lon="2.38497">
        <ele>141</ele>
        <time>2018-06-25T07:13:02Z</time>
      </trkpt>
      <trkpt lat="47.12675" lon="2.3849">
        <ele>141</ele>
        <time>2018-06-25T07:13:12Z</time>
      </trkpt>
      <trkpt lat="47.12685" lon="2.38485">
        <ele>141</ele>
        <time>2018-06-25T07:13:22Z</time>
      </trkpt>
      <trkpt lat="47.12697" lon="2.38479">
        <ele>141</ele>
        <time>2018-06-25T07:13:32Z</time>
      </trkpt>
      <trkpt lat="47.12709" lon="2.38475">
        <ele>141</ele>
        <time>2018-06-25T07:13:42Z</time>
      </trkpt>
      <trkpt lat="47.12718" lon="2.38472">
        <ele>141</ele>
        <time>2018-06-25T07:13:52Z</time>
      </trkpt>
      <trkpt lat="47.12726" lon="2.38468">
        <ele>141</ele>
        <time>2018-06-25T07:14:02Z</time>
      </trkpt>
      <trkpt lat="47.12731" lon="2.38467">
        <ele>141</ele>
        <time>2018-06-25T07:14:12Z</time>
      </trkpt>
      <trkpt lat="47.12744" lon="2.38465">
        <ele>141</ele>
        <time>2018-06-25T07:14:22Z</time>
      </trkpt>
      <trkpt lat="47.12751" lon="2.38462">
        <ele>141</ele>
        <time>2018-06-25T07:14:32Z</time>
      </trkpt>
      <trkpt lat="47.12766" lon="2.3846">
        <ele>141</ele>
        <time>2018-06-25T07:14:42Z</time>
      </trkpt>
      <trkpt lat="47.12775" lon="2.38457">
        <ele>141</ele>
        <time>2018-06-25T07:14:52Z</time>
      </trkpt>
      <trkpt lat="47.12788" lon="2.38455">
        <ele>141</ele>
        <time>2018-06-25T07:15:02Z</time>
      </trkpt>
      <trkpt lat="47.128" lon="2.38453">
        <ele>141</ele>
        <time>2018-06-25T07:15:12Z</time>
      </trkpt>
      <trkpt lat="47.12806" lon="2.38449">
        <ele>141</ele>
        <time>2018-06-25T07:15:22Z</time>
      </trkpt>
      <trkpt lat="47.12806" lon="2.38449">
        <ele>141</ele>
        <time>2018-06-25T07:15:32Z</time>
      </trkpt>
      <trkpt lat="47.12806" lon="2.38449">
        <ele>141</ele>
        <time>2018-06-25T07:15:42Z</time>
      </trkpt>
      <trkpt lat="47.12806" lon="2.38449">
        <ele>141</ele>
        <time>2018-06-25T07:15:52Z</time>
      </trkpt>
      <trkpt lat="47.12806" lon="2.38449">
        <ele>141</ele>
        <time>2018-06-25T07:16:02Z</time>
      </trkpt>
      <trkpt lat="47.12806" lon="2.38449">
        <ele>141</ele>
        <time>2018-06-25T07:16:12Z</time>
      </trkpt>
      <trkpt lat="47.12806" lon="2.38449">
        <ele>141</ele>
        <time>2018-06-25T07:16:22Z</time>
      </trkpt>
      <trkpt lat="47.12806" lon="2.38449">
        <ele>141</ele>
        <time>2018-06-25T07:16:32Z</time>
      </trkpt>
      <trkpt lat="47.12806" lon="2.38449">
        <ele>141</ele>
        <time>2018-06-25T07:16:42Z</time>
      </trkpt>
      <trkpt lat="47.12806" lon="2.38449">
        <ele>141</ele>
        <time>2018-06-25T07:16:52Z</time>
      </trkpt>
      <trkpt lat="47.12806" lon="2.38449">
        <ele>141</ele>
        <time>2018-06-25T07:17:02Z</time>
      </trkpt>
      <trkpt lat="47.12806" lon="2.38449">
        <ele>141</ele>
        <time>2018-06-25T07:17:12Z</time>
      </trkpt>
      <trkpt lat="47.12806" lon="2.38449">
        <ele>141</ele>
        <time>2018-06-25T07:17:22Z</time>
      </trkpt>
      <trkpt lat="47.12806" lon="2.38449">
        <ele>141</ele>
        <time>2018-06-25T07:17:32Z</time>
      </trkpt>
      <trkpt lat="47.12806" lon="2.38449">
        <ele>141</ele>
        <time>2018-06-25T07:17:42Z</time>
      </trkpt>
      <trkpt lat="47.12809" lon="2.38448">
        <ele>140</ele>
        <time>2018-06-25T07:17:52Z</time>
      </trkpt>
      <trkpt lat="47.12818" lon="2.38444">
        <ele>140</ele>
        <time>2018-06-25T07:18:02Z</time>
      </trkpt>
      <trkpt lat="47.12819" lon="2.38436">
        <ele>140</ele>
        <time>2018-06-25T07:18:12Z</time>
      </trkpt>
      <trkpt lat="47.12812" lon="2.38428">
        <ele>140</ele>
        <time>2018-06-25T07:18:22Z</time>
      </trkpt>
      <trkpt lat="47.12808" lon="2.38423">
        <ele>140</ele>
        <time>2018-06-25T07:18:32Z</time>
      </trkpt>
      <trkpt lat="47.12808" lon="2.38423">
        <ele>140</ele>
        <time>2018-06-25T07:18:42Z</time>
      </trkpt>
      <trkpt lat="47.12804" lon="2.38418">
        <ele>140</ele>
        <time>2018-06-25T07:18:52Z</time>
      </trkpt>
      <trkpt lat="47.12795" lon="2.38406">
        <ele>139</ele>
        <time>2018-06-25T07:19:02Z</time>
      </trkpt>
      <trkpt lat="47.12787" lon="2.38394">
        <ele>139</ele>
        <time>2018-06-25T07:19:12Z</time>
      </trkpt>
      <trkpt lat="47.1278" lon="2.38387">
        <ele>139</ele>
        <time>2018-06-25T07:19:22Z</time>
      </trkpt>
      <trkpt lat="47.1277" lon="2.38373">
        <ele>139</ele>
        <time>2018-06-25T07:19:32Z</time>
      </trkpt>
      <trkpt lat="47.12767" lon="2.3837">
        <ele>139</ele>
        <time>2018-06-25T07:19:42Z</time>
      </trkpt>
      <trkpt lat="47.12755" lon="2.38356">
        <ele>139</ele>
        <time>2018-06-25T07:19:52Z</time>
      </trkpt>
      <trkpt lat="47.12747" lon="2.38345">
        <ele>139</ele>
        <time>2018-06-25T07:20:02Z</time>
      </trkpt>
      <trkpt lat="47.12737" lon="2.38335">
        <ele>139</ele>
        <time>2018-06-25T07:20:12Z</time>
      </trkpt>
      <trkpt lat="47.12727" lon="2.38327">
        <ele>138</ele>
        <time>2018-06-25T07:20:22Z</time>
      </trkpt>
      <trkpt lat="47.12718" lon="2.38318">
        <ele>138</ele>
        <time>2018-06-25T07:20:32Z</time>
      </trkpt>
      <trkpt lat="47.1271" lon="2.38306">
        <ele>138</ele>
        <time>2018-06-25T07:20:42Z</time>
      </trkpt>
      <trkpt lat="47.1271" lon="2.38306">
        <ele>138</ele>
        <time>2018-06-25T07:20:52Z</time>
      </trkpt>
      <trkpt lat="47.1271" lon="2.38306">
        <ele>138</ele>
        <time>2018-06-25T07:21:02Z</time>
      </trkpt>
      <trkpt lat="47.12713" lon="2.38301">
        <ele>138</ele>
        <time>2018-06-25T07:21:12Z</time>
      </trkpt>
      <trkpt lat="47.12713" lon="2.38299">
        <ele>138</ele>
        <time>2018-06-25T07:21:22Z</time>
      </trkpt>
      <trkpt lat="47.12712" lon="2.38289">
        <ele>138</ele>
      </trkpt>
      <trkpt lat="47.1272" lon="2.38277">
        <ele>138</ele>
        <time>2018-06-25T07:21:42Z</time>
      </trkpt>
      <trkpt lat="47.12725" lon="2.38263">
        <ele>138</ele>
        <time>2018-06-25T07:21:52Z</time>
      </trkpt>
      <trkpt lat="47.12727" lon="2.38245">
        <ele>138</ele>
        <time>2018-06-25T07:22:02Z</time>
      </trkpt>
      <trkpt lat="47.12724" lon="2.3822">
        <ele>138</ele>
        <time>2018-06-25T07:22:12Z</time>
      </trkpt>
      <trkpt lat="47.12723" lon="2.38203">
        <ele>138</ele>
        <time>2018-06-25T07:22:22Z</time>
      </trkpt>
      <trkpt lat="47.12722" lon="2.38193">
        <ele>138</ele>
        <time>2018-06-25T07:22:32Z</time>
      </trkpt>
      <trkpt lat="47.12723" lon="2.38174">
        <ele>138</ele>
        <time>2018-06-25T07:22:42Z</time>
      </trkpt>
      <trkpt lat="47.12726" lon="2.38158">
        <ele>138</ele>
        <time>2018-06-25T07:22:52Z</time>
      </trkpt>
      <trkpt lat="47.12728" lon="2.38146">
        <ele>138</ele>
        <time>2018-06-25T07:23:02Z</time>
      </trkpt>
      <trkpt lat="47.12734" lon="2.38123">
        <ele>138</ele>
        <time>2018-06-25T07:23:12Z</time>
      </trkpt>
      <trkpt lat="47.12736" lon="2.38112">
        <ele>138</ele>
        <time>2018-06-25T07:23:22Z</time>
      </trkpt>
      <trkpt lat="47.12738" lon="2.38099">
        <ele>138</ele>
        <time>2018-06-25T07:23:32Z</time>
      </trkpt>
      <trkpt lat="47.12744" lon="2.38074">
        <ele>138</ele>
        <time>2018-06-25T07:23:42Z</time>
      </trkpt>
      <trkpt lat="47.12745" lon="2.38057">
        <ele>137</ele>
        <time>2018-06-25T07:23:52Z</time>
      </trkpt>
      <trkpt lat="47.12746" lon="2.38037">
        <ele>137</ele>
        <time>2018-06-25T07:24:02Z</time>
      </trkpt>
      <trkpt lat="47.12748" lon="2.38018">
        <ele>138</ele>
      </trkpt>
      <trkpt lat="47.1275" lon="2.37997">
        <ele>138</ele>
      </trkpt>
      <trkpt lat="47.12749" lon="2.37984">
        <ele>138</ele>
      </trkpt>
      <trkpt lat="47.12751" lon="2.37971">
        <ele>139</ele>
        <time>2018-06-25T07:24:42Z</time>
      </trkpt>
      <trkpt lat="47.12754" lon="2.37949">
        <ele>139</ele>
        <time>2018-06-25T07:24:52Z</time>
      </trkpt>
      <trkpt lat="47.12756" lon="2.37931">
        <ele>139</ele>
        <time>2018-06-25T07:25:02Z</time>
      </trkpt>
      <trkpt lat="47.12759" lon="2.37919">
        <ele>139</ele>
        <time>2018-06-25T07:25:12Z</time>
      </trkpt>
      <trkpt lat="47.12768" lon="2.37901">
        <ele>138</ele>
        <time>2018-06-25T07:25:22Z</time>
      </trkpt>
      <trkpt lat="47.12773" lon="2.37888">
        <ele>138</ele>
        <time>2018-06-25T07:25:32Z</time>
      </trkpt>
      <trkpt lat="47.12774" lon="2.37878">
        <ele>138</ele>
        <time>2018-06-25T07:25:42Z</time>
      </trkpt>
      <trkpt lat="47.12785" lon="2.37858">
        <ele>138</ele>
        <time>2018-06-25T07:25:52Z</time>
      </trkpt>
      <trkpt lat="47.12791" lon="2.37845">
        <ele>138</ele>
        <time>2018-06-25T07:26:02Z</time>
      </trkpt>
      <trkpt lat="47.12798" lon="2.37828">
        <ele>137</ele>
        <time>2018-06-25T07:26:12Z</time>
      </trkpt>
      <trkpt lat="47.12803" lon="2.37812">
        <ele>137</ele>
        <time>2018-06-25T07:26:22Z</time>
      </trkpt>
      <trkpt lat="47.12804" lon="2.37798">
        <ele>137</ele>
        <time>2018-06-25T07:26:32Z</time>
      </trkpt>
      <trkpt lat="47.12808" lon="2.37777">
        <ele>137</ele>
        <time>2018-06-25T07:26:42Z</time>
      </trkpt>
      <trkpt lat="47.1281" lon="2.37759">
        <ele>136</ele>
        <time>2018-06-25T07:26:52Z</time>
      </trkpt>
      <trkpt lat="47.1281" lon="2.37748">
        <ele>136</ele>
        <time>2018-06-25T07:27:02Z</time>
      </trkpt>
      <trkpt lat="47.12812" lon="2.37733">
        <ele>137</ele>
        <time>2018-06-25T07:27:12Z</time>
      </trkpt>
      <trkpt lat="47.12813" lon="2.37716">
        <ele>137</ele>
        <time>2018-06-25T07:27:22Z</time>
      </trkpt>
      <trkpt lat="47.12812" lon="2.37702">
        <ele>137</ele>
        <time>2018-06-25T07:27:32Z</time>
      </trkpt>
      <trkpt lat="47.12807" lon="2.37692">
        <ele>137</ele>
        <time>2018-06-25T07:27:42Z</time>
      </trkpt>
      <trkpt lat="47.12805" lon="2.3769">
        <ele>137</ele>
        <time>2018-06-25T07:27:52Z</time>
      </trkpt>
      <trkpt lat="47.12795" lon="2.37685">
        <ele>137</ele>
        <time>2018-06-25T07:28:02Z</time>
      </trkpt>
      <trkpt lat="47.12788" lon="2.3768">
        <ele>137</ele>
        <time>2018-06-25T07:28:12Z</time>
      </trkpt>
      <trkpt lat="47.12783" lon="2.3768">
        <ele>137</ele>
        <time>2018-06-25T07:28:22Z</time>
      </trkpt>
      <trkpt lat="47.12774" lon="2.37677">
        <ele>137</ele>
        <time>2018-06-25T07:28:32Z</time>
      </trkpt>
      <trkpt lat="47.12766" lon="2.37688">
        <ele>137</ele>
        <time>2018-06-25T07:28:42Z</time>
      </trkpt>
      <trkpt lat="47.12762" lon="2.37704">
        <ele>137</ele>
        <time>2018-06-25T07:28:52Z</time>
      </trkpt>
      <trkpt lat="47.12756" lon="2.37718">
        <ele>137</ele>
        <time>2018-06-25T07:29:02Z</time>
      </trkpt>
      <trkpt lat="47.12751" lon="2.37725">
        <ele>137</ele>
        <time>2018-06-25T07:29:12Z</time>
      </trkpt>
      <trkpt lat="47.1275" lon="2.37727">
        <ele>137</ele>
        <time>2018-06-25T07:29:22Z</time>
      </trkpt>
      <trkpt lat="47.12748" lon="2.37739">
        <ele>137</ele>
        <time>2018-06-25T07:29:32Z</time>
      </trkpt>
      <trkpt lat="47.12746" lon="2.3775">
        <ele>137</ele>
        <time>2018-06-25T07:29:42Z</time>
      </trkpt>
      <trkpt lat="47.12742" lon="2.37762">
        <ele>137</ele>
        <time>2018-06-25T07:29:52Z</time>
      </trkpt>
      <trkpt lat="47.12736" lon="2.37774">
        <ele>137</ele>
        <time>2018-06-25T07:30:02Z</time>
      </trkpt>
      <trkpt lat="47.12731" lon="2.37787">
        <ele>137</ele>
        <time>2018-06-25T07:30:12Z</time>
      </trkpt>
      <trkpt lat="47.12719" lon="2.37799">
        <ele>137</ele>
        <time>2018-06-25T07:30:22Z</time>
      </trkpt>
      <trkpt lat="47.12712" lon="2.37808">
        <ele>137</ele>
        <time>2018-06-25T07:30:32Z</time>
      </trkpt>
      <trkpt lat="47.12707" lon="2.37816">
        <ele>137</ele>
        <time>2018-06-25T07:30:42Z</time>
      </trkpt>
      <trkpt lat="47.12696" lon="2.37823">
        <ele>137</ele>
        <time>2018-06-25T07:30:52Z</time>
      </trkpt>
      <trkpt lat="47.12686" lon="2.37828">
        <ele>137</ele>
        <time>2018-06-25T07:31:02Z</time>
      </trkpt>
      <trkpt lat="47.12677" lon="2.37835">
        <ele>136</ele>
        <time>2018-06-25T07:31:12Z</time>
      </trkpt>
      <trkpt lat="47.12666" lon="2.37842">
        <ele>137</ele>
        <time>2018-06-25T07:31:22Z</time>
      </trkpt>
      <trkpt lat="47.12659" lon="2.3785">
        <ele>137</ele>
        <time>2018-06-25T07:31:32Z</time>
      </trkpt>
      <trkpt lat="47.12645" lon="2.37862">
        <ele>138</ele>
        <time>2018-06-25T07:31:42Z</time>
      </trkpt>
      <trkpt lat="47.12638" lon="2.37872">
        <ele>138</ele>
        <time>2018-06-25T07:31:52Z</time>
      </trkpt>
      <trkpt lat="47.12629" lon="2.37879">
        <ele>138</ele>
        <time>2018-06-25T07:32:02Z</time>
      </trkpt>
      <trkpt lat="47.12628" lon="2.3788">
        <ele>138</ele>
        <time>2018-06-25T07:32:12Z</time>
      </trkpt>
      <trkpt lat="47.12626" lon="2.37882">
        <ele>138</ele>
        <time>2018-06-25T07:32:22Z</time>
      </trkpt>
      <trkpt lat="47.12617" lon="2.37893">
        <ele>138</ele>
        <time>2018-06-25T07:32:32Z</time>
      </trkpt>
      <trkpt lat="47.1261" lon="2.37901">
        <ele>139</ele>
        <time>2018-06-25T07:32:42Z</time>
      </trkpt>
      <trkpt lat="47.12599" lon="2.37912">
        <ele>139</ele>
        <time>2018-06-25T07:32:52Z</time>
      </trkpt>
      <trkpt lat="47.12594" lon="2.37922">
        <ele>139</ele>
        <time>2018-06-25T07:33:02Z</time>
      </trkpt>
      <trkpt lat="47.12583" lon="2.37939">
        <ele>141</ele>
        <time>2018-06-25T07:33:12Z</time>
      </trkpt>
      <trkpt lat="47.12569" lon="2.37955">
        <ele>141</ele>
        <time>2018-06-25T07:33:22Z</time>
      </trkpt>
      <trkpt lat="47.12563" lon="2.37964">
        <ele>141</ele>
        <time>2018-06-25T07:33:32Z</time>
      </trkpt>
      <trkpt lat="47.1256" lon="2.37972">
        <ele>140</ele>
        <time>2018-06-25T07:33:42Z</time>
      </trkpt>
      <trkpt lat="47.1255" lon="2.37986">
        <ele>140</ele>
        <time>2018-06-25T07:33:52Z</time>
      </trkpt>
      <trkpt lat="47.1254" lon="2.38002">
        <ele>139</ele>
        <time>2018-06-25T07:34:02Z</time>
      </trkpt>
      <trkpt lat="47.12534" lon="2.38013">
        <ele>139</ele>
        <time>2018-06-25T07:34:12Z</time>
      </trkpt>
      <trkpt lat="47.12528" lon="2.38023">
        <ele>139</ele>
        <time>2018-06-25T07:34:22Z</time>
      </trkpt>
      <trkpt lat="47.12522" lon="2.38042">
        <ele>139</ele>
        <time>2018-06-25T07:34:32Z</time>
      </trkpt>
      <trkpt lat="47.12519" lon="2.38058">
        <ele>139</ele>
        <time>2018-06-25T07:34:42Z</time>
      </trkpt>
      <trkpt lat="47.12521" lon="2.38073">
        <ele>139</ele>
        <time>2018-06-25T07:34:52Z</time>
      </trkpt>
      <trkpt lat="47.12534" lon="2.38089">
        <ele>139</ele>
      </trkpt>
      <trkpt lat="47.12545" lon="2.38097">
        <ele>139</ele>
        <time>2018-06-25T07:35:12Z</time>
      </trkpt>
      <trkpt lat="47.12551" lon="2.38101">
        <ele>139</ele>
        <time>2018-06-25T07:35:22Z</time>
      </trkpt>
      <trkpt lat="47.12557" lon="2.38109">
        <ele>139</ele>
        <time>2018-06-25T07:35:32Z</time>
      </trkpt>
      <trkpt lat="47.12566" lon="2.38116">
        <ele>139</ele>
        <time>2018-06-25T07:35:42Z</time>
      </trkpt>
      <trkpt lat="47.1258" lon="2.3813">
        <ele>139</ele>
        <time>2018-06-25T07:35:52Z</time>
      </trkpt>
      <trkpt lat="47.12594" lon="2.38147">
        <ele>139</ele>
        <time>2018-06-25T07:36:02Z</time>
      </trkpt>
      <trkpt lat="47.12598" lon="2.38152">
        <ele>139</ele>
        <time>2018-06-25T07:36:12Z</time>
      </trkpt>
      <trkpt lat="47.12608" lon="2.38162">
        <ele>139</ele>
        <time>2018-06-25T07:36:22Z</time>
      </trkpt>
      <trkpt lat="47.12615" lon="2.38167">
        <ele>139</ele>
        <time>2018-06-25T07:36:32Z</time>
      </trkpt>
      <trkpt lat="47.12625" lon="2.38179">
        <ele>139</ele>
        <time>2018-06-25T07:36:42Z</time>
      </trkpt>
      <trkpt lat="47.1263" lon="2.38187">
        <ele>139</ele>
        <time>2018-06-25T07:36:52Z</time>
      </trkpt>
      <trkpt lat="47.1263" lon="2.38187">
        <ele>139</ele>
        <time>2018-06-25T07:37:02Z</time>
      </trkpt>
      <trkpt lat="47.1263" lon="2.38187">
        <ele>139</ele>
        <time>2018-06-25T07:37:12Z</time>
      </trkpt>
      <trkpt lat="47.1263" lon="2.38187">
        <ele>139</ele>
        <time>2018-06-25T07:37:22Z</time>
      </trkpt>
      <trkpt lat="47.1264" lon="2.382">
        <ele>138</ele>
        <time>2018-06-25T07:37:32Z</time>
      </trkpt>
      <trkpt lat="47.12647" lon="2.38206">
        <ele>138</ele>
        <time>2018-06-25T07:37:42Z</time>
      </trkpt>
      <trkpt lat="47.12658" lon="2.38221">
        <ele>138</ele>
        <time>2018-06-25T07:37:52Z</time>
      </trkpt>
      <trkpt lat="47.12666" lon="2.38232">
        <ele>138</ele>
        <time>2018-06-25T07:38:02Z</time>
      </trkpt>
      <trkpt lat="47.12675" lon="2.38249">
        <ele>137</ele>
        <time>2018-06-25T07:38:12Z</time>
      </trkpt>
      <trkpt lat="47.12682" lon="2.38257">
        <ele>138</ele>
        <time>2018-06-25T07:38:22Z</time>
      </trkpt>
      <trkpt lat="47.1269" lon="2.38268">
        <ele>138</ele>
        <time>2018-06-25T07:38:32Z</time>
      </trkpt>
      <trkpt lat="47.12698" lon="2.3828">
        <ele>138</ele>
        <time>2018-06-25T07:38:42Z</time>
      </trkpt>
      <trkpt lat="47.12704" lon="2.38292">
        <ele>138</ele>
        <time>2018-06-25T07:38:52Z</time>
      </trkpt>
      <trkpt lat="47.12707" lon="2.38304">
        <ele>138</ele>
        <time>2018-06-25T07:39:02Z</time>
      </trkpt>
      <trkpt lat="47.12715" lon="2.38316">
        <ele>138</ele>
        <time>2018-06-25T07:39:12Z</time>
      </trkpt>
      <trkpt lat="47.12723" lon="2.38324">
        <ele>138</ele>
        <time>2018-06-25T07:39:22Z</time>
      </trkpt>
      <trkpt lat="47.12732" lon="2.38332">
        <ele>138</ele>
        <time>2018-06-25T07:39:32Z</time>
      </trkpt>
      <trkpt lat="47.1274" lon="2.38341">
        <ele>139</ele>
        <time>2018-06-25T07:39:42Z</time>
      </trkpt>
      <trkpt lat="47.1275" lon="2.38353">
        <ele>139</ele>
        <time>2018-06-25T07:39:52Z</time>
      </trkpt>
      <trkpt lat="47.12759" lon="2.38362">
        <ele>139</ele>
        <time>2018-06-25T07:40:02Z</time>
      </trkpt>
      <trkpt lat="47.12767" lon="2.38373">
        <ele>139</ele>
        <time>2018-06-25T07:40:12Z</time>
      </trkpt>
      <trkpt lat="47.12775" lon="2.38383">
        <ele>139</ele>
        <time>2018-06-25T07:40:22Z</time>
      </trkpt>
      <trkpt lat="47.12783" lon="2.38393">
        <ele>139</ele>
        <time>2018-06-25T07:40:32Z</time>
      </trkpt>
      <trkpt lat="47.12792" lon="2.38404">
        <ele>139</ele>
        <time>2018-06-25T07:40:42Z</time>
      </trkpt>
      <trkpt lat="47.128" lon="2.38414">
        <ele>139</ele>
        <time>2018-06-25T07:40:52Z</time>
      </trkpt>
      <trkpt lat="47.12808" lon="2.38423">
        <ele>140</ele>
        <time>2018-06-25T07:41:02Z</time>
      </trkpt>
      <trkpt lat="47.12816" lon="2.38432">
        <ele>140</ele>
        <time>2018-06-25T07:41:12Z</time>
      </trkpt>
      <trkpt lat="47.1282" lon="2.3844">
        <ele>140</ele>
        <time>2018-06-25T07:41:22Z</time>
      </trkpt>
      <trkpt lat="47.1282" lon="2.38439">
        <ele>140</ele>
        <time>2018-06-25T07:41:32Z</time>
      </trkpt>
      <trkpt lat="47.12823" lon="2.3844">
        <ele>140</ele>
        <time>2018-06-25T07:41:42Z</time>
      </trkpt>
      <trkpt lat="47.12817" lon="2.38447">
        <ele>140</ele>
        <time>2018-06-25T07:41:52Z</time>
      </trkpt>
      <trkpt lat="47.12806" lon="2.38449">
        <ele>141</ele>
        <time>2018-06-25T07:42:02Z</time>
      </trkpt>
      <trkpt lat="47.12796" lon="2.38451">
        <ele>141</ele>
        <time>2018-06-25T07:42:12Z</time>
      </trkpt>
      <trkpt lat="47.12786" lon="2.38454">
        <ele>141</ele>
        <time>2018-06-25T07:42:22Z</time>
      </trkpt>
      <trkpt lat="47.12774" lon="2.38457">
        <ele>141</ele>
        <time>2018-06-25T07:42:32Z</time>
      </trkpt>
      <trkpt lat="47.12764" lon="2.3846">
        <ele>141</ele>
        <time>2018-06-25T07:42:42Z</time>
      </trkpt>
      <trkpt lat="47.12755" lon="2.38462">
        <ele>141</ele>
        <time>2018-06-25T07:42:52Z</time>
      </trkpt>
      <trkpt lat="47.12742" lon="2.38464">
        <ele>141</ele>
        <time>2018-06-25T07:43:02Z</time>
      </trkpt>
      <trkpt lat="47.12731" lon="2.38467">
        <ele>141</ele>
        <time>2018-06-25T07:43:12Z</time>
      </trkpt>
      <trkpt lat="47.1272" lon="2.38471">
        <ele>141</ele>
        <time>2018-06-25T07:43:22Z</time>
      </trkpt>
      <trkpt lat="47.12709" lon="2.38474">
        <ele>141</ele>
        <time>2018-06-25T07:43:32Z</time>
      </trkpt>
      <trkpt lat="47.12698" lon="2.38478">
        <ele>141</ele>
        <time>2018-06-25T07:43:42Z</time>
      </trkpt>
      <trkpt lat="47.12687" lon="2.38483">
        <ele>141</ele>
        <time>2018-06-25T07:43:52Z</time>
      </trkpt>
      <trkpt lat="47.12676" lon="2.38488">
        <ele>141</ele>
        <time>2018-06-25T07:44:02Z</time>
      </trkpt>
      <trkpt lat="47.12663" lon="2.38495">
        <ele>141</ele>
        <time>2018-06-25T07:44:12Z</time>
      </trkpt>
      <trkpt lat="47.12652" lon="2.38502">
        <ele>140</ele>
        <time>2018-06-25T07:44:22Z</time>
      </trkpt>
      <trkpt lat="47.12644" lon="2.3851">
        <ele>139</ele>
        <time>2018-06-25T07:44:32Z</time>
      </trkpt>
      <trkpt lat="47.12629" lon="2.38523">
        <ele>138</ele>
        <time>2018-06-25T07:44:42Z</time>
      </trkpt>
      <trkpt lat="47.12618" lon="2.38531">
        <ele>138</ele>
        <time>2018-06-25T07:44:52Z</time>
      </trkpt>
      <trkpt lat="47.12612" lon="2.38536">
        <ele>138</ele>
        <time>2018-06-25T07:45:02Z</time>
      </trkpt>
      <trkpt lat="47.12598" lon="2.38551">
        <ele>137</ele>
        <time>2018-06-25T07:45:12Z</time>
      </trkpt>
      <trkpt lat="47.12587" lon="2.38561">
        <ele>137</ele>
        <time>2018-06-25T07:45:22Z</time>
      </trkpt>
      <trkpt lat="47.12584" lon="2.38568">
        <ele>137</ele>
        <time>2018-06-25T07:45:32Z</time>
      </trkpt>
      <trkpt lat="47.12574" lon="2.38578">
        <ele>136</ele>
        <time>2018-06-25T07:45:42Z</time>
      </trkpt>
      <trkpt lat="47.12563" lon="2.38588">
        <ele>136</ele>
        <time>2018-06-25T07:45:52Z</time>
      </trkpt>
      <trkpt lat="47.12562" lon="2.38593">
        <ele>136</ele>
        <time>2018-06-25T07:46:02Z</time>
      </trkpt>
      <trkpt lat="47.12546" lon="2.38603">
        <ele>135</ele>
        <time>2018-06-25T07:46:12Z</time>
      </trkpt>
      <trkpt lat="47.12536" lon="2.38609">
        <ele>135</ele>
        <time>2018-06-25T07:46:22Z</time>
      </trkpt>
      <trkpt lat="47.12526" lon="2.38619">
        <ele>135</ele>
        <time>2018-06-25T07:46:32Z</time>
      </trkpt>
      <trkpt lat="47.12512" lon="2.38634">
        <ele>135</ele>
        <time>2018-06-25T07:46:42Z</time>
      </trkpt>
      <trkpt lat="47.12509" lon="2.38645">
        <ele>135</ele>
      </trkpt>
      <trkpt lat="47.125" lon="2.38659">
        <ele>136</ele>
      </trkpt>
      <trkpt lat="47.12489" lon="2.3867">
        <ele>137</ele>
      </trkpt>
      <trkpt lat="47.1248" lon="2.38665">
        <ele>136</ele>
        <time>2018-06-25T07:47:22Z</time>
      </trkpt>
      <trkpt lat="47.12474" lon="2.38654">
        <ele>137</ele>
        <time>2018-06-25T07:47:32Z</time>
      </trkpt>
      <trkpt lat="47.12466" lon="2.38646">
        <ele>137</ele>
        <time>2018-06-25T07:47:42Z</time>
      </trkpt>
      <trkpt lat="47.12455" lon="2.38629">
        <ele>137</ele>
        <time>2018-06-25T07:47:52Z</time>
      </trkpt>
      <trkpt lat="47.12446" lon="2.3862">
        <ele>137</ele>
        <time>2018-06-25T07:48:02Z</time>
      </trkpt>
      <trkpt lat="47.12438" lon="2.38608">
        <ele>137</ele>
        <time>2018-06-25T07:48:12Z</time>
      </trkpt>
      <trkpt lat="47.12429" lon="2.38601">
        <ele>137</ele>
        <time>2018-06-25T07:48:22Z</time>
      </trkpt>
      <trkpt lat="47.12428" lon="2.386">
        <ele>137</ele>
        <time>2018-06-25T07:48:32Z</time>
      </trkpt>
      <trkpt lat="47.12428" lon="2.386">
        <ele>137</ele>
        <time>2018-06-25T07:48:42Z</time>
      </trkpt>
      <trkpt lat="47.12427" lon="2.386">
        <ele>137</ele>
        <time>2018-06-25T07:48:52Z</time>
      </trkpt>
      <trkpt lat="47.12426" lon="2.38608">
        <ele>137</ele>
        <time>2018-06-25T07:49:02Z</time>
      </trkpt>
      <trkpt lat="47.12431" lon="2.38623">
        <ele>138</ele>
        <time>2018-06-25T07:49:12Z</time>
      </trkpt>
      <trkpt lat="47.12434" lon="2.38637">
        <ele>138</ele>
        <time>2018-06-25T07:49:22Z</time>
      </trkpt>
      <trkpt lat="47.12439" lon="2.3865">
        <ele>138</ele>
        <time>2018-06-25T07:49:32Z</time>
      </trkpt>
      <trkpt lat="47.12443" lon="2.38664">
        <ele>138</ele>
      </trkpt>
      <trkpt lat="47.12451" lon="2.38679">
        <ele>140</ele>
      </trkpt>
      <trkpt lat="47.12457" lon="2.38697">
        <ele>140</ele>
      </trkpt>
      <trkpt lat="47.1246" lon="2.38711">
        <ele>140</ele>
        <time>2018-06-25T07:50:12Z</time>
      </trkpt>
      <trkpt lat="47.12458" lon="2.38722">
        <ele>141</ele>
        <time>2018-06-25T07:50:22Z</time>
      </trkpt>
      <trkpt lat="47.1246" lon="2.38734">
        <ele>141</ele>
        <time>2018-06-25T07:50:32Z</time>
      </trkpt>
      <trkpt lat="47.1246" lon="2.38736">
        <ele>141</ele>
        <time>2018-06-25T07:50:42Z</time>
      </trkpt>
      <trkpt lat="47.12454" lon="2.3874">
        <ele>141</ele>
      </trkpt>
      <trkpt lat="47.12447" lon="2.3875">
        <ele>144</ele>
      </trkpt>
      <trkpt lat="47.12438" lon="2.38758">
        <ele>144</ele>
        <time>2018-06-25T07:51:12Z</time>
      </trkpt>
      <trkpt lat="47.1243" lon="2.38764">
        <ele>145</ele>
        <time>2018-06-25T07:51:22Z</time>
      </trkpt>
      <trkpt lat="47.12425" lon="2.38769">
        <ele>145</ele>
        <time>2018-06-25T07:51:32Z</time>
      </trkpt>
      <trkpt lat="47.12421" lon="2.38774">
        <ele>145</ele>
        <time>2018-06-25T07:51:42Z</time>
      </trkpt>
      <trkpt lat="47.12414" lon="2.38783">
        <ele>147</ele>
        <time>2018-06-25T07:51:52Z</time>
      </trkpt>
      <trkpt lat="47.1241" lon="2.38785">
        <ele>147</ele>
        <time>2018-06-25T07:52:02Z</time>
      </trkpt>
      <trkpt lat="47.12404" lon="2.38793">
        <ele>147</ele>
        <time>2018-06-25T07:52:12Z</time>
      </trkpt>
      <trkpt lat="47.124" lon="2.38799">
        <ele>147</ele>
        <time>2018-06-25T07:52:22Z</time>
      </trkpt>
      <trkpt lat="47.12398" lon="2.388">
        <ele>147</ele>
        <time>2018-06-25T07:52:32Z</time>
      </trkpt>
      <trkpt lat="47.12392" lon="2.38806">
        <ele>147</ele>
        <time>2018-06-25T07:52:42Z</time>
      </trkpt>
      <trkpt lat="47.12383" lon="2.38815">
        <ele>147</ele>
        <time>2018-06-25T07:52:52Z</time>
      </trkpt>
      <trkpt lat="47.12375" lon="2.38824">
        <ele>147</ele>
        <time>2018-06-25T07:53:02Z</time>
      </trkpt>
      <trkpt lat="47.12366" lon="2.38832">
        <ele>147</ele>
        <time>2018-06-25T07:53:12Z</time>
      </trkpt>
      <trkpt lat="47.12356" lon="2.38841">
        <ele>148</ele>
        <time>2018-06-25T07:53:22Z</time>
      </trkpt>
      <trkpt lat="47.12349" lon="2.38844">
        <ele>148</ele>
        <time>2018-06-25T07:53:32Z</time>
      </trkpt>
      <trkpt lat="47.12342" lon="2.38854">
        <ele>148</ele>
        <time>2018-06-25T07:53:42Z</time>
      </trkpt>
      <trkpt lat="47.1233" lon="2.3887">
        <ele>147</ele>
      </trkpt>
      <trkpt lat="47.12324" lon="2.38877">
        <ele>146</ele>
        <time>2018-06-25T07:54:02Z</time>
      </trkpt>
      <trkpt lat="47.12315" lon="2.3889">
        <ele>146</ele>
        <time>2018-06-25T07:54:12Z</time>
      </trkpt>
      <trkpt lat="47.12308" lon="2.38899">
        <ele>146</ele>
        <time>2018-06-25T07:54:22Z</time>
      </trkpt>
      <trkpt lat="47.123" lon="2.38907">
        <ele>146</ele>
        <time>2018-06-25T07:54:32Z</time>
      </trkpt>
      <trkpt lat="47.12291" lon="2.38917">
        <ele>146</ele>
        <time>2018-06-25T07:54:42Z</time>
      </trkpt>
      <trkpt lat="47.12283" lon="2.38927">
        <ele>146</ele>
        <time>2018-06-25T07:54:52Z</time>
      </trkpt>
      <trkpt lat="47.12271" lon="2.38937">
        <ele>146</ele>
        <time>2018-06-25T07:55:02Z</time>
      </trkpt>
      <trkpt lat="47.12264" lon="2.38947">
        <ele>146</ele>
        <time>2018-06-25T07:55:12Z</time>
      </trkpt>
      <trkpt lat="47.12254" lon="2.38956">
        <ele>146</ele>
        <time>2018-06-25T07:55:22Z</time>
      </trkpt>
      <trkpt lat="47.12248" lon="2.38963">
        <ele>144</ele>
        <time>2018-06-25T07:55:32Z</time>
      </trkpt>
      <trkpt lat="47.12233" lon="2.38971">
        <ele>144</ele>
        <time>2018-06-25T07:55:42Z</time>
      </trkpt>
      <trkpt lat="47.12227" lon="2.38978">
        <ele>144</ele>
        <time>2018-06-25T07:55:52Z</time>
      </trkpt>
      <trkpt lat="47.12213" lon="2.38985">
        <ele>144</ele>
        <time>2018-06-25T07:56:02Z</time>
      </trkpt>
      <trkpt lat="47.12202" lon="2.38994">
        <ele>144</ele>
        <time>2018-06-25T07:56:12Z</time>
      </trkpt>
      <trkpt lat="47.12197" lon="2.38997">
        <ele>143</ele>
        <time>2018-06-25T07:56:22Z</time>
      </trkpt>
      <trkpt lat="47.12191" lon="2.3901">
        <ele>144</ele>
        <time>2018-06-25T07:56:32Z</time>
      </trkpt>
      <trkpt lat="47.12194" lon="2.39033">
        <ele>145</ele>
      </trkpt>
      <trkpt lat="47.12198" lon="2.39048">
        <ele>145</ele>
      </trkpt>
      <trkpt lat="47.12204" lon="2.39062">
        <ele>145</ele>
      </trkpt>
      <trkpt lat="47.12207" lon="2.39075">
        <ele>145</ele>
        <time>2018-06-25T07:57:12Z</time>
      </trkpt>
      <trkpt lat="47.12211" lon="2.39092">
        <ele>146</ele>
        <time>2018-06-25T07:57:22Z</time>
      </trkpt>
      <trkpt lat="47.12215" lon="2.39109">
        <ele>146</ele>
        <time>2018-06-25T07:57:32Z</time>
      </trkpt>
      <trkpt lat="47.12216" lon="2.39125">
        <ele>147</ele>
        <time>2018-06-25T07:57:42Z</time>
      </trkpt>
      <trkpt lat="47.12211" lon="2.39137">
        <ele>147</ele>
        <time>2018-06-25T07:57:52Z</time>
      </trkpt>
      <trkpt lat="47.12202" lon="2.39146">
        <ele>147</ele>
        <time>2018-06-25T07:58:02Z</time>
      </trkpt>
      <trkpt lat="47.12189" lon="2.39147">
        <ele>146</ele>
        <time>2018-06-25T07:58:12Z</time>
      </trkpt>
      <trkpt lat="47.12182" lon="2.39153">
        <ele>146</ele>
        <time>2018-06-25T07:58:22Z</time>
      </trkpt>
      <trkpt lat="47.12166" lon="2.39159">
        <ele>145</ele>
        <time>2018-06-25T07:58:32Z</time>
      </trkpt>
      <trkpt lat="47.12161" lon="2.39164">
        <ele>145</ele>
        <time>2018-06-25T07:58:42Z</time>
      </trkpt>
      <trkpt lat="47.12161" lon="2.39165">
        <ele>145</ele>
        <time>2018-06-25T07:58:52Z</time>
      </trkpt>
      <trkpt lat="47.12157" lon="2.39175">
        <ele>145</ele>
      </trkpt>
      <trkpt lat="47.12159" lon="2.39194">
        <ele>144</ele>
        <time>2018-06-25T07:59:12Z</time>
      </trkpt>
      <trkpt lat="47.12161" lon="2.39209">
        <ele>144</ele>
        <time>2018-06-25T07:59:22Z</time>
      </trkpt>
      <trkpt lat="47.12163" lon="2.39227">
        <ele>144</ele>
        <time>2018-06-25T07:59:32Z</time>
      </trkpt>
      <trkpt lat="47.12164" lon="2.39246">
        <ele>145</ele>
        <time>2018-06-25T07:59:42Z</time>
      </trkpt>
      <trkpt lat="47.12166" lon="2.39259">
        <ele>145</ele>
        <time>2018-06-25T07:59:52Z</time>
      </trkpt>
      <trkpt lat="47.12168" lon="2.39274">
        <ele>146</ele>
        <time>2018-06-25T08:00:02Z</time>
      </trkpt>
      <trkpt lat="47.12171" lon="2.39285">
        <ele>146</ele>
        <time>2018-06-25T08:00:12Z</time>
      </trkpt>
      <trkpt lat="47.12173" lon="2.39296">
        <ele>146</ele>
        <time>2018-06-25T08:00:22Z</time>
      </trkpt>
      <trkpt lat="47.12174" lon="2.39308">
        <ele>146</ele>
        <time>2018-06-25T08:00:32Z</time>
      </trkpt>
      <trkpt lat="47.12177" lon="2.39322">
        <ele>146</ele>
        <time>2018-06-25T08:00:42Z</time>
      </trkpt>
      <trkpt lat="47.12179" lon="2.39338">
        <ele>145</ele>
        <time>2018-06-25T08:00:52Z</time>
      </trkpt>
      <trkpt lat="47.12181" lon="2.39351">
        <ele>146</ele>
        <time>2018-06-25T08:01:02Z</time>
      </trkpt>
      <trkpt lat="47.1218" lon="2.39358">
        <ele>146</ele>
        <time>2018-06-25T08:01:12Z</time>
      </trkpt>
      <trkpt lat="47.12178" lon="2.39363">
        <ele>146</ele>
        <time>2018-06-25T08:01:22Z</time>
      </trkpt>
      <trkpt lat="47.12175" lon="2.39365">
        <ele>146</ele>
        <time>2018-06-25T08:01:32Z</time>
      </trkpt>
      <trkpt lat="47.12167" lon="2.39373">
        <ele>143</ele>
        <time>2018-06-25T08:01:42Z</time>
      </trkpt>
      <trkpt lat="47.12157" lon="2.39372">
        <ele>143</ele>
        <time>2018-06-25T08:01:52Z</time>
      </trkpt>
      <trkpt lat="47.12148" lon="2.39372">
        <ele>143</ele>
        <time>2018-06-25T08:02:02Z</time>
      </trkpt>
      <trkpt lat="47.12135" lon="2.39371">
        <ele>143</ele>
        <time>2018-06-25T08:02:12Z</time>
      </trkpt>
      <trkpt lat="47.12125" lon="2.39371">
        <ele>143</ele>
        <time>2018-06-25T08:02:22Z</time>
      </trkpt>
      <trkpt lat="47.12113" lon="2.39374">
        <ele>142</ele>
        <time>2018-06-25T08:02:32Z</time>
      </trkpt>
      <trkpt lat="47.12101" lon="2.39374">
        <ele>142</ele>
        <time>2018-06-25T08:02:42Z</time>
      </trkpt>
      <trkpt lat="47.1209" lon="2.39374">
        <ele>142</ele>
        <time>2018-06-25T08:02:52Z</time>
      </trkpt>
      <trkpt lat="47.12087" lon="2.39374">
        <ele>142</ele>
        <time>2018-06-25T08:03:02Z</time>
      </trkpt>
      <trkpt lat="47.12076" lon="2.39375">
        <ele>140</ele>
        <time>2018-06-25T08:03:12Z</time>
      </trkpt>
      <trkpt lat="47.12063" lon="2.39375">
        <ele>140</ele>
        <time>2018-06-25T08:03:22Z</time>
      </trkpt>
      <trkpt lat="47.12055" lon="2.39376">
        <ele>140</ele>
        <time>2018-06-25T08:03:32Z</time>
      </trkpt>
      <trkpt lat="47.1204" lon="2.39374">
        <ele>140</ele>
        <time>2018-06-25T08:03:42Z</time>
      </trkpt>
      <trkpt lat="47.12032" lon="2.39374">
        <ele>140</ele>
        <time>2018-06-25T08:03:52Z</time>
      </trkpt>
      <trkpt lat="47.12019" lon="2.39371">
        <ele>140</ele>
        <time>2018-06-25T08:04:02Z</time>
      </trkpt>
      <trkpt lat="47.12009" lon="2.3937">
        <ele>139</ele>
        <time>2018-06-25T08:04:12Z</time>
      </trkpt>
      <trkpt lat="47.12001" lon="2.39372">
        <ele>139</ele>
        <time>2018-06-25T08:04:22Z</time>
      </trkpt>
      <trkpt lat="47.11985" lon="2.39374">
        <ele>139</ele>
        <time>2018-06-25T08:04:32Z</time>
      </trkpt>
      <trkpt lat="47.11971" lon="2.39371">
        <ele>139</ele>
        <time>2018-06-25T08:04:42Z</time>
      </trkpt>
      <trkpt lat="47.11961" lon="2.39372">
        <ele>139</ele>
        <time>2018-06-25T08:04:52Z</time>
      </trkpt>
      <trkpt lat="47.11946" lon="2.39371">
        <ele>139</ele>
        <time>2018-06-25T08:05:02Z</time>
      </trkpt>
      <trkpt lat="47.11933" lon="2.39369">
        <ele>139</ele>
        <time>2018-06-25T08:05:12Z</time>
      </trkpt>
      <trkpt lat="47.11923" lon="2.39369">
        <ele>139</ele>
        <time>2018-06-25T08:05:22Z</time>
      </trkpt>
      <trkpt lat="47.11912" lon="2.39371">
        <ele>140</ele>
        <time>2018-06-25T08:05:32Z</time>
      </trkpt>
      <trkpt lat="47.11896" lon="2.3937">
        <ele>140</ele>
        <time>2018-06-25T08:05:42Z</time>
      </trkpt>
      <trkpt lat="47.11888" lon="2.39371">
        <ele>141</ele>
        <time>2018-06-25T08:05:52Z</time>
      </trkpt>
      <trkpt lat="47.11873" lon="2.3937">
        <ele>141</ele>
        <time>2018-06-25T08:06:02Z</time>
      </trkpt>
      <trkpt lat="47.11861" lon="2.39369">
        <ele>141</ele>
        <time>2018-06-25T08:06:12Z</time>
      </trkpt>
      <trkpt lat="47.11854" lon="2.39368">
        <ele>141</ele>
        <time>2018-06-25T08:06:22Z</time>
      </trkpt>
      <trkpt lat="47.11843" lon="2.39369">
        <ele>141</ele>
        <time>2018-06-25T08:06:32Z</time>
      </trkpt>
      <trkpt lat="47.11827" lon="2.39366">
        <ele>143</ele>
        <time>2018-06-25T08:06:42Z</time>
      </trkpt>
      <trkpt lat="47.11815" lon="2.39366">
        <ele>143</ele>
        <time>2018-06-25T08:06:52Z</time>
      </trkpt>
      <trkpt lat="47.11807" lon="2.39369">
        <ele>143</ele>
        <time>2018-06-25T08:07:02Z</time>
      </trkpt>
      <trkpt lat="47.11797" lon="2.39369">
        <ele>143</ele>
        <time>2018-06-25T08:07:12Z</time>
      </trkpt>
      <trkpt lat="47.11786" lon="2.39368">
        <ele>144</ele>
        <time>2018-06-25T08:07:22Z</time>
      </trkpt>
      <trkpt lat="47.11775" lon="2.39367">
        <ele>144</ele>
        <time>2018-06-25T08:07:32Z</time>
      </trkpt>
      <trkpt lat="47.11764" lon="2.39367">
        <ele>144</ele>
        <time>2018-06-25T08:07:42Z</time>
      </trkpt>
      <trkpt lat="47.11752" lon="2.39366">
        <ele>144</ele>
        <time>2018-06-25T08:07:52Z</time>
      </trkpt>
      <trkpt lat="47.11747" lon="2.39378">
        <ele>145</ele>
      </trkpt>
      <trkpt lat="47.11735" lon="2.39377">
        <ele>145</ele>
      </trkpt>
      <trkpt lat="47.1173" lon="2.39371">
        <ele>145</ele>
      </trkpt>
      <trkpt lat="47.11722" lon="2.39362">
        <ele>145</ele>
        <time>2018-06-25T08:08:22Z</time>
      </trkpt>
      <trkpt lat="47.11711" lon="2.39362">
        <ele>145</ele>
        <time>2018-06-25T08:08:32Z</time>
      </trkpt>
      <trkpt lat="47.11701" lon="2.39361">
        <ele>145</ele>
        <time>2018-06-25T08:08:42Z</time>
      </trkpt>
      <trkpt lat="47.11688" lon="2.39361">
        <ele>145</ele>
        <time>2018-06-25T08:08:52Z</time>
      </trkpt>
      <trkpt lat="47.11678" lon="2.39362">
        <ele>145</ele>
        <time>2018-06-25T08:09:02Z</time>
      </trkpt>
      <trkpt lat="47.11666" lon="2.3936">
        <ele>145</ele>
        <time>2018-06-25T08:09:12Z</time>
      </trkpt>
      <trkpt lat="47.11657" lon="2.39361">
        <ele>145</ele>
        <time>2018-06-25T08:09:22Z</time>
      </trkpt>
      <trkpt lat="47.11642" lon="2.39364">
        <ele>145</ele>
        <time>2018-06-25T08:09:32Z</time>
      </trkpt>
      <trkpt lat="47.11634" lon="2.39372">
        <ele>145</ele>
        <time>2018-06-25T08:09:42Z</time>
      </trkpt>
      <trkpt lat="47.11623" lon="2.39381">
        <ele>145</ele>
        <time>2018-06-25T08:09:52Z</time>
      </trkpt>
      <trkpt lat="47.11617" lon="2.39391">
        <ele>145</ele>
        <time>2018-06-25T08:10:02Z</time>
      </trkpt>
      <trkpt lat="47.11609" lon="2.39398">
        <ele>145</ele>
        <time>2018-06-25T08:10:12Z</time>
      </trkpt>
      <trkpt lat="47.11602" lon="2.39408">
        <ele>145</ele>
        <time>2018-06-25T08:10:22Z</time>
      </trkpt>
      <trkpt lat="47.11594" lon="2.39417">
        <ele>146</ele>
        <time>2018-06-25T08:10:32Z</time>
      </trkpt>
      <trkpt lat="47.11584" lon="2.39427">
        <ele>146</ele>
        <time>2018-06-25T08:10:42Z</time>
      </trkpt>
      <trkpt lat="47.11575" lon="2.39436">
        <ele>146</ele>
        <time>2018-06-25T08:10:52Z</time>
      </trkpt>
      <trkpt lat="47.11567" lon="2.39445">
        <ele>146</ele>
      </trkpt>
      <trkpt lat="47.11558" lon="2.39455">
        <ele>146</ele>
        <time>2018-06-25T08:11:12Z</time>
      </trkpt>
      <trkpt lat="47.11558" lon="2.39456">
        <ele>146</ele>
        <time>2018-06-25T08:11:22Z</time>
      </trkpt>
      <trkpt lat="47.11558" lon="2.39456">
        <ele>146</ele>
        <time>2018-06-25T08:11:32Z</time>
      </trkpt>
      <trkpt lat="47.11551" lon="2.39462">
        <ele>146</ele>
        <time>2018-06-25T08:11:42Z</time>
      </trkpt>
      <trkpt lat="47.11547" lon="2.39472">
        <ele>146</ele>
        <time>2018-06-25T08:11:52Z</time>
      </trkpt>
      <trkpt lat="47.11545" lon="2.39483">
        <ele>147</ele>
        <time>2018-06-25T08:12:02Z</time>
      </trkpt>
      <trkpt lat="47.11541" lon="2.39495">
        <ele>147</ele>
        <time>2018-06-25T08:12:12Z</time>
      </trkpt>
      <trkpt lat="47.11534" lon="2.39508">
        <ele>147</ele>
        <time>2018-06-25T08:12:22Z</time>
      </trkpt>
    </trkseg>
  </trk>
</gpx>